<?xml version="1.0" encoding="UTF-8" standalone="no" ?>
<gpx xmlns="http://www.topografix.com/GPX/1/1" xmlns:xsi="http://www.w3.org/2001/XMLSchema-instance" xsi:schemaLocation="http://www.topografix.com/GPX/1/1 http://www.topografix.com/GPX/1/1/gpx.xsd" version="1.1" creator="VisuGPX - https://www.visugpx.com">
  <metadata>
    <name>Le Saut du Cabri - Caramy ** (Tourves 83)</name>
    <desc><![CDATA[Pont de Cassède, La Resclave, GR99, Claou de la Chevalière, Saut du Cabri
Gorges du Caramy]]></desc>
  </metadata>
  <trk>
    <name><![CDATA[30 mars 2017 10-29-41]]></name>
    <trkseg>
      <trkpt lat="43.38932" lon="5.93134">
        <ele>349</ele>
        <time>2017-03-30T08:30:48Z</time>
      </trkpt>
      <trkpt lat="43.38927" lon="5.93144">
        <ele>344</ele>
        <time>2017-03-30T08:31:24Z</time>
      </trkpt>
      <trkpt lat="43.38918" lon="5.93146">
        <ele>344</ele>
        <time>2017-03-30T08:31:39Z</time>
      </trkpt>
      <trkpt lat="43.3891" lon="5.9314">
        <ele>344</ele>
        <time>2017-03-30T08:31:47Z</time>
      </trkpt>
      <trkpt lat="43.389" lon="5.93141">
        <ele>344</ele>
        <time>2017-03-30T08:31:54Z</time>
      </trkpt>
      <trkpt lat="43.38891" lon="5.93135">
        <ele>343</ele>
        <time>2017-03-30T08:32:11Z</time>
      </trkpt>
      <trkpt lat="43.38881" lon="5.93131">
        <ele>342</ele>
        <time>2017-03-30T08:32:22Z</time>
      </trkpt>
      <trkpt lat="43.38874" lon="5.93123">
        <ele>342</ele>
        <time>2017-03-30T08:32:34Z</time>
      </trkpt>
      <trkpt lat="43.38868" lon="5.93112">
        <ele>341</ele>
        <time>2017-03-30T08:32:41Z</time>
      </trkpt>
      <trkpt lat="43.38861" lon="5.93103">
        <ele>340</ele>
        <time>2017-03-30T08:32:51Z</time>
      </trkpt>
      <trkpt lat="43.38852" lon="5.931">
        <ele>339</ele>
        <time>2017-03-30T08:33:07Z</time>
      </trkpt>
      <trkpt lat="43.3885" lon="5.93087">
        <ele>339</ele>
        <time>2017-03-30T08:33:14Z</time>
      </trkpt>
      <trkpt lat="43.38852" lon="5.93074">
        <ele>339</ele>
        <time>2017-03-30T08:33:22Z</time>
      </trkpt>
      <trkpt lat="43.38857" lon="5.93062">
        <ele>338</ele>
        <time>2017-03-30T08:33:29Z</time>
      </trkpt>
      <trkpt lat="43.38848" lon="5.93067">
        <ele>337</ele>
        <time>2017-03-30T08:34:20Z</time>
      </trkpt>
      <trkpt lat="43.38839" lon="5.93071">
        <ele>337</ele>
        <time>2017-03-30T08:34:31Z</time>
      </trkpt>
      <trkpt lat="43.38829" lon="5.93075">
        <ele>336</ele>
        <time>2017-03-30T08:34:49Z</time>
      </trkpt>
      <trkpt lat="43.38821" lon="5.93082">
        <ele>336</ele>
        <time>2017-03-30T08:34:56Z</time>
      </trkpt>
      <trkpt lat="43.38813" lon="5.93087">
        <ele>336</ele>
        <time>2017-03-30T08:35:06Z</time>
      </trkpt>
      <trkpt lat="43.38804" lon="5.93091">
        <ele>335</ele>
        <time>2017-03-30T08:35:18Z</time>
      </trkpt>
      <trkpt lat="43.38794" lon="5.93089">
        <ele>335</ele>
        <time>2017-03-30T08:35:29Z</time>
      </trkpt>
      <trkpt lat="43.38786" lon="5.93093">
        <ele>334</ele>
        <time>2017-03-30T08:35:43Z</time>
      </trkpt>
      <trkpt lat="43.38777" lon="5.93099">
        <ele>334</ele>
        <time>2017-03-30T08:35:54Z</time>
      </trkpt>
      <trkpt lat="43.38769" lon="5.93105">
        <ele>333</ele>
        <time>2017-03-30T08:36:07Z</time>
      </trkpt>
      <trkpt lat="43.3876" lon="5.93111">
        <ele>333</ele>
        <time>2017-03-30T08:36:19Z</time>
      </trkpt>
      <trkpt lat="43.38752" lon="5.93116">
        <ele>333</ele>
        <time>2017-03-30T08:36:33Z</time>
      </trkpt>
      <trkpt lat="43.38744" lon="5.93124">
        <ele>332</ele>
        <time>2017-03-30T08:36:47Z</time>
      </trkpt>
      <trkpt lat="43.38737" lon="5.93132">
        <ele>332</ele>
        <time>2017-03-30T08:37:00Z</time>
      </trkpt>
      <trkpt lat="43.38729" lon="5.93139">
        <ele>332</ele>
        <time>2017-03-30T08:37:14Z</time>
      </trkpt>
      <trkpt lat="43.38725" lon="5.9315">
        <ele>332</ele>
        <time>2017-03-30T08:37:27Z</time>
      </trkpt>
      <trkpt lat="43.38721" lon="5.93162">
        <ele>332</ele>
        <time>2017-03-30T08:37:42Z</time>
      </trkpt>
      <trkpt lat="43.38712" lon="5.93167">
        <ele>332</ele>
        <time>2017-03-30T08:37:56Z</time>
      </trkpt>
      <trkpt lat="43.38705" lon="5.93173">
        <ele>332</ele>
        <time>2017-03-30T08:38:06Z</time>
      </trkpt>
      <trkpt lat="43.38699" lon="5.93183">
        <ele>332</ele>
        <time>2017-03-30T08:38:22Z</time>
      </trkpt>
      <trkpt lat="43.38694" lon="5.93194">
        <ele>333</ele>
        <time>2017-03-30T08:38:38Z</time>
      </trkpt>
      <trkpt lat="43.38686" lon="5.932">
        <ele>333</ele>
        <time>2017-03-30T08:38:50Z</time>
      </trkpt>
      <trkpt lat="43.38688" lon="5.93214">
        <ele>333</ele>
        <time>2017-03-30T08:39:02Z</time>
      </trkpt>
      <trkpt lat="43.38685" lon="5.93227">
        <ele>333</ele>
        <time>2017-03-30T08:39:20Z</time>
      </trkpt>
      <trkpt lat="43.38681" lon="5.93238">
        <ele>334</ele>
        <time>2017-03-30T08:39:36Z</time>
      </trkpt>
      <trkpt lat="43.38679" lon="5.93251">
        <ele>334</ele>
        <time>2017-03-30T08:39:52Z</time>
      </trkpt>
      <trkpt lat="43.38678" lon="5.93264">
        <ele>335</ele>
        <time>2017-03-30T08:40:05Z</time>
      </trkpt>
      <trkpt lat="43.38678" lon="5.93276">
        <ele>335</ele>
        <time>2017-03-30T08:40:19Z</time>
      </trkpt>
      <trkpt lat="43.38677" lon="5.93289">
        <ele>335</ele>
        <time>2017-03-30T08:40:34Z</time>
      </trkpt>
      <trkpt lat="43.38678" lon="5.93302">
        <ele>336</ele>
        <time>2017-03-30T08:40:53Z</time>
      </trkpt>
      <trkpt lat="43.38675" lon="5.93314">
        <ele>336</ele>
        <time>2017-03-30T08:41:06Z</time>
      </trkpt>
      <trkpt lat="43.38667" lon="5.9332">
        <ele>337</ele>
        <time>2017-03-30T08:41:22Z</time>
      </trkpt>
      <trkpt lat="43.38665" lon="5.93333">
        <ele>338</ele>
        <time>2017-03-30T08:41:42Z</time>
      </trkpt>
      <trkpt lat="43.38664" lon="5.93346">
        <ele>338</ele>
        <time>2017-03-30T08:41:56Z</time>
      </trkpt>
      <trkpt lat="43.38659" lon="5.93357">
        <ele>339</ele>
        <time>2017-03-30T08:42:06Z</time>
      </trkpt>
      <trkpt lat="43.38653" lon="5.93367">
        <ele>339</ele>
        <time>2017-03-30T08:42:22Z</time>
      </trkpt>
      <trkpt lat="43.38644" lon="5.93372">
        <ele>340</ele>
        <time>2017-03-30T08:42:31Z</time>
      </trkpt>
      <trkpt lat="43.38636" lon="5.93379">
        <ele>340</ele>
        <time>2017-03-30T08:42:41Z</time>
      </trkpt>
      <trkpt lat="43.38635" lon="5.93392">
        <ele>341</ele>
        <time>2017-03-30T08:42:57Z</time>
      </trkpt>
      <trkpt lat="43.38638" lon="5.93404">
        <ele>341</ele>
        <time>2017-03-30T08:43:14Z</time>
      </trkpt>
      <trkpt lat="43.38634" lon="5.93415">
        <ele>342</ele>
        <time>2017-03-30T08:43:47Z</time>
      </trkpt>
      <trkpt lat="43.38636" lon="5.93427">
        <ele>343</ele>
        <time>2017-03-30T08:44:08Z</time>
      </trkpt>
      <trkpt lat="43.38635" lon="5.9344">
        <ele>344</ele>
        <time>2017-03-30T08:44:23Z</time>
      </trkpt>
      <trkpt lat="43.38631" lon="5.93451">
        <ele>344</ele>
        <time>2017-03-30T08:44:35Z</time>
      </trkpt>
      <trkpt lat="43.38628" lon="5.93463">
        <ele>345</ele>
        <time>2017-03-30T08:44:43Z</time>
      </trkpt>
      <trkpt lat="43.38622" lon="5.93473">
        <ele>345</ele>
        <time>2017-03-30T08:44:52Z</time>
      </trkpt>
      <trkpt lat="43.38616" lon="5.93483">
        <ele>346</ele>
        <time>2017-03-30T08:45:01Z</time>
      </trkpt>
      <trkpt lat="43.38607" lon="5.9349">
        <ele>346</ele>
        <time>2017-03-30T08:45:09Z</time>
      </trkpt>
      <trkpt lat="43.38605" lon="5.93502">
        <ele>347</ele>
        <time>2017-03-30T08:45:19Z</time>
      </trkpt>
      <trkpt lat="43.38607" lon="5.93515">
        <ele>348</ele>
        <time>2017-03-30T08:45:26Z</time>
      </trkpt>
      <trkpt lat="43.38607" lon="5.93528">
        <ele>348</ele>
        <time>2017-03-30T08:45:35Z</time>
      </trkpt>
      <trkpt lat="43.38616" lon="5.93532">
        <ele>352</ele>
        <time>2017-03-30T08:47:15Z</time>
      </trkpt>
      <trkpt lat="43.38622" lon="5.93542">
        <ele>356</ele>
        <time>2017-03-30T08:48:12Z</time>
      </trkpt>
      <trkpt lat="43.3862" lon="5.93554">
        <ele>359</ele>
        <time>2017-03-30T08:48:24Z</time>
      </trkpt>
      <trkpt lat="43.38615" lon="5.93565">
        <ele>363</ele>
        <time>2017-03-30T08:49:51Z</time>
      </trkpt>
      <trkpt lat="43.38612" lon="5.93577">
        <ele>365</ele>
        <time>2017-03-30T08:50:27Z</time>
      </trkpt>
      <trkpt lat="43.38607" lon="5.93588">
        <ele>370</ele>
        <time>2017-03-30T08:53:33Z</time>
      </trkpt>
      <trkpt lat="43.38602" lon="5.93599">
        <ele>371</ele>
        <time>2017-03-30T08:53:45Z</time>
      </trkpt>
      <trkpt lat="43.38598" lon="5.9361">
        <ele>372</ele>
        <time>2017-03-30T08:53:55Z</time>
      </trkpt>
      <trkpt lat="43.38591" lon="5.93619">
        <ele>372</ele>
        <time>2017-03-30T08:54:04Z</time>
      </trkpt>
      <trkpt lat="43.38583" lon="5.93626">
        <ele>373</ele>
        <time>2017-03-30T08:54:14Z</time>
      </trkpt>
      <trkpt lat="43.38577" lon="5.93635">
        <ele>373</ele>
        <time>2017-03-30T08:54:25Z</time>
      </trkpt>
      <trkpt lat="43.3857" lon="5.93645">
        <ele>374</ele>
        <time>2017-03-30T08:54:36Z</time>
      </trkpt>
      <trkpt lat="43.38563" lon="5.93653">
        <ele>374</ele>
        <time>2017-03-30T08:54:47Z</time>
      </trkpt>
      <trkpt lat="43.38558" lon="5.93665">
        <ele>375</ele>
        <time>2017-03-30T08:55:02Z</time>
      </trkpt>
      <trkpt lat="43.3856" lon="5.93677">
        <ele>375</ele>
        <time>2017-03-30T08:55:16Z</time>
      </trkpt>
      <trkpt lat="43.3856" lon="5.9369">
        <ele>375</ele>
        <time>2017-03-30T08:55:27Z</time>
      </trkpt>
      <trkpt lat="43.3856" lon="5.93702">
        <ele>376</ele>
        <time>2017-03-30T08:55:42Z</time>
      </trkpt>
      <trkpt lat="43.38557" lon="5.93715">
        <ele>376</ele>
        <time>2017-03-30T08:55:51Z</time>
      </trkpt>
      <trkpt lat="43.38558" lon="5.93728">
        <ele>376</ele>
        <time>2017-03-30T08:56:03Z</time>
      </trkpt>
      <trkpt lat="43.38561" lon="5.9374">
        <ele>377</ele>
        <time>2017-03-30T08:56:22Z</time>
      </trkpt>
      <trkpt lat="43.38562" lon="5.93753">
        <ele>377</ele>
        <time>2017-03-30T08:56:33Z</time>
      </trkpt>
      <trkpt lat="43.38568" lon="5.93765">
        <ele>377</ele>
        <time>2017-03-30T08:56:44Z</time>
      </trkpt>
      <trkpt lat="43.38565" lon="5.93778">
        <ele>377</ele>
        <time>2017-03-30T08:56:53Z</time>
      </trkpt>
      <trkpt lat="43.3856" lon="5.93789">
        <ele>377</ele>
        <time>2017-03-30T08:57:04Z</time>
      </trkpt>
      <trkpt lat="43.38555" lon="5.938">
        <ele>378</ele>
        <time>2017-03-30T08:57:16Z</time>
      </trkpt>
      <trkpt lat="43.38553" lon="5.93812">
        <ele>378</ele>
        <time>2017-03-30T08:57:28Z</time>
      </trkpt>
      <trkpt lat="43.38548" lon="5.93824">
        <ele>378</ele>
        <time>2017-03-30T08:57:44Z</time>
      </trkpt>
      <trkpt lat="43.3854" lon="5.93831">
        <ele>379</ele>
        <time>2017-03-30T08:57:59Z</time>
      </trkpt>
      <trkpt lat="43.3853" lon="5.93831">
        <ele>379</ele>
        <time>2017-03-30T08:58:14Z</time>
      </trkpt>
      <trkpt lat="43.38522" lon="5.93835">
        <ele>379</ele>
        <time>2017-03-30T08:58:26Z</time>
      </trkpt>
      <trkpt lat="43.38512" lon="5.93836">
        <ele>380</ele>
        <time>2017-03-30T08:58:36Z</time>
      </trkpt>
      <trkpt lat="43.38503" lon="5.93838">
        <ele>380</ele>
        <time>2017-03-30T08:58:46Z</time>
      </trkpt>
      <trkpt lat="43.38495" lon="5.93846">
        <ele>380</ele>
        <time>2017-03-30T08:58:58Z</time>
      </trkpt>
      <trkpt lat="43.38486" lon="5.9385">
        <ele>380</ele>
        <time>2017-03-30T08:59:10Z</time>
      </trkpt>
      <trkpt lat="43.38478" lon="5.93857">
        <ele>380</ele>
        <time>2017-03-30T08:59:21Z</time>
      </trkpt>
      <trkpt lat="43.38469" lon="5.93862">
        <ele>380</ele>
        <time>2017-03-30T08:59:31Z</time>
      </trkpt>
      <trkpt lat="43.38462" lon="5.9387">
        <ele>381</ele>
        <time>2017-03-30T08:59:41Z</time>
      </trkpt>
      <trkpt lat="43.38456" lon="5.9388">
        <ele>381</ele>
        <time>2017-03-30T08:59:52Z</time>
      </trkpt>
      <trkpt lat="43.38447" lon="5.93885">
        <ele>381</ele>
        <time>2017-03-30T09:00:04Z</time>
      </trkpt>
      <trkpt lat="43.38439" lon="5.93892">
        <ele>381</ele>
        <time>2017-03-30T09:00:14Z</time>
      </trkpt>
      <trkpt lat="43.38431" lon="5.93899">
        <ele>381</ele>
        <time>2017-03-30T09:00:23Z</time>
      </trkpt>
      <trkpt lat="43.38423" lon="5.93907">
        <ele>381</ele>
        <time>2017-03-30T09:00:36Z</time>
      </trkpt>
      <trkpt lat="43.38415" lon="5.93913">
        <ele>381</ele>
        <time>2017-03-30T09:00:44Z</time>
      </trkpt>
      <trkpt lat="43.38407" lon="5.93919">
        <ele>382</ele>
        <time>2017-03-30T09:00:54Z</time>
      </trkpt>
      <trkpt lat="43.38398" lon="5.93925">
        <ele>382</ele>
        <time>2017-03-30T09:01:05Z</time>
      </trkpt>
      <trkpt lat="43.38391" lon="5.93933">
        <ele>382</ele>
        <time>2017-03-30T09:01:15Z</time>
      </trkpt>
      <trkpt lat="43.38382" lon="5.93938">
        <ele>382</ele>
        <time>2017-03-30T09:01:25Z</time>
      </trkpt>
      <trkpt lat="43.38373" lon="5.93943">
        <ele>382</ele>
        <time>2017-03-30T09:01:34Z</time>
      </trkpt>
      <trkpt lat="43.38364" lon="5.93948">
        <ele>382</ele>
        <time>2017-03-30T09:01:42Z</time>
      </trkpt>
      <trkpt lat="43.38356" lon="5.93952">
        <ele>382</ele>
        <time>2017-03-30T09:01:51Z</time>
      </trkpt>
      <trkpt lat="43.38347" lon="5.93957">
        <ele>382</ele>
        <time>2017-03-30T09:02:01Z</time>
      </trkpt>
      <trkpt lat="43.38337" lon="5.9396">
        <ele>382</ele>
        <time>2017-03-30T09:02:11Z</time>
      </trkpt>
      <trkpt lat="43.38329" lon="5.93965">
        <ele>382</ele>
        <time>2017-03-30T09:02:20Z</time>
      </trkpt>
      <trkpt lat="43.38319" lon="5.93969">
        <ele>382</ele>
        <time>2017-03-30T09:02:29Z</time>
      </trkpt>
      <trkpt lat="43.3831" lon="5.93975">
        <ele>382</ele>
        <time>2017-03-30T09:02:40Z</time>
      </trkpt>
      <trkpt lat="43.38301" lon="5.9398">
        <ele>382</ele>
        <time>2017-03-30T09:02:49Z</time>
      </trkpt>
      <trkpt lat="43.38291" lon="5.93986">
        <ele>382</ele>
        <time>2017-03-30T09:02:56Z</time>
      </trkpt>
      <trkpt lat="43.38282" lon="5.9399">
        <ele>383</ele>
        <time>2017-03-30T09:03:08Z</time>
      </trkpt>
      <trkpt lat="43.38273" lon="5.93989">
        <ele>383</ele>
        <time>2017-03-30T09:03:21Z</time>
      </trkpt>
      <trkpt lat="43.38263" lon="5.93991">
        <ele>383</ele>
        <time>2017-03-30T09:03:30Z</time>
      </trkpt>
      <trkpt lat="43.38254" lon="5.93994">
        <ele>383</ele>
        <time>2017-03-30T09:03:40Z</time>
      </trkpt>
      <trkpt lat="43.38245" lon="5.94001">
        <ele>383</ele>
        <time>2017-03-30T09:03:49Z</time>
      </trkpt>
      <trkpt lat="43.38237" lon="5.94008">
        <ele>384</ele>
        <time>2017-03-30T09:04:00Z</time>
      </trkpt>
      <trkpt lat="43.38229" lon="5.94015">
        <ele>384</ele>
        <time>2017-03-30T09:04:09Z</time>
      </trkpt>
      <trkpt lat="43.38219" lon="5.94017">
        <ele>384</ele>
        <time>2017-03-30T09:04:20Z</time>
      </trkpt>
      <trkpt lat="43.3821" lon="5.94018">
        <ele>384</ele>
        <time>2017-03-30T09:04:27Z</time>
      </trkpt>
      <trkpt lat="43.382" lon="5.94018">
        <ele>384</ele>
        <time>2017-03-30T09:04:36Z</time>
      </trkpt>
      <trkpt lat="43.38191" lon="5.94022">
        <ele>385</ele>
        <time>2017-03-30T09:04:50Z</time>
      </trkpt>
      <trkpt lat="43.3818" lon="5.94019">
        <ele>385</ele>
        <time>2017-03-30T09:04:56Z</time>
      </trkpt>
      <trkpt lat="43.38171" lon="5.94015">
        <ele>385</ele>
        <time>2017-03-30T09:05:29Z</time>
      </trkpt>
      <trkpt lat="43.38174" lon="5.94027">
        <ele>389</ele>
        <time>2017-03-30T09:07:40Z</time>
      </trkpt>
      <trkpt lat="43.38179" lon="5.94038">
        <ele>391</ele>
        <time>2017-03-30T09:07:55Z</time>
      </trkpt>
      <trkpt lat="43.38186" lon="5.94046">
        <ele>392</ele>
        <time>2017-03-30T09:08:10Z</time>
      </trkpt>
      <trkpt lat="43.38193" lon="5.94055">
        <ele>394</ele>
        <time>2017-03-30T09:08:37Z</time>
      </trkpt>
      <trkpt lat="43.38198" lon="5.94066">
        <ele>395</ele>
        <time>2017-03-30T09:08:52Z</time>
      </trkpt>
      <trkpt lat="43.38204" lon="5.94076">
        <ele>396</ele>
        <time>2017-03-30T09:09:04Z</time>
      </trkpt>
      <trkpt lat="43.38212" lon="5.94083">
        <ele>398</ele>
        <time>2017-03-30T09:09:25Z</time>
      </trkpt>
      <trkpt lat="43.38204" lon="5.94091">
        <ele>400</ele>
        <time>2017-03-30T09:11:05Z</time>
      </trkpt>
      <trkpt lat="43.38197" lon="5.941">
        <ele>401</ele>
        <time>2017-03-30T09:11:13Z</time>
      </trkpt>
      <trkpt lat="43.38203" lon="5.94109">
        <ele>402</ele>
        <time>2017-03-30T09:12:34Z</time>
      </trkpt>
      <trkpt lat="43.38211" lon="5.94101">
        <ele>402</ele>
        <time>2017-03-30T09:13:05Z</time>
      </trkpt>
      <trkpt lat="43.38204" lon="5.94092">
        <ele>404</ele>
        <time>2017-03-30T09:14:49Z</time>
      </trkpt>
      <trkpt lat="43.38199" lon="5.94082">
        <ele>404</ele>
        <time>2017-03-30T09:15:08Z</time>
      </trkpt>
      <trkpt lat="43.38195" lon="5.9407">
        <ele>405</ele>
        <time>2017-03-30T09:15:28Z</time>
      </trkpt>
      <trkpt lat="43.38193" lon="5.94057">
        <ele>405</ele>
        <time>2017-03-30T09:15:43Z</time>
      </trkpt>
      <trkpt lat="43.38193" lon="5.94044">
        <ele>405</ele>
        <time>2017-03-30T09:16:06Z</time>
      </trkpt>
      <trkpt lat="43.38193" lon="5.94032">
        <ele>405</ele>
        <time>2017-03-30T09:16:17Z</time>
      </trkpt>
      <trkpt lat="43.38193" lon="5.94018">
        <ele>405</ele>
        <time>2017-03-30T09:16:29Z</time>
      </trkpt>
      <trkpt lat="43.38197" lon="5.94006">
        <ele>405</ele>
        <time>2017-03-30T09:16:38Z</time>
      </trkpt>
      <trkpt lat="43.38205" lon="5.94">
        <ele>406</ele>
        <time>2017-03-30T09:16:49Z</time>
      </trkpt>
      <trkpt lat="43.38214" lon="5.93998">
        <ele>406</ele>
        <time>2017-03-30T09:17:00Z</time>
      </trkpt>
      <trkpt lat="43.38224" lon="5.93995">
        <ele>406</ele>
        <time>2017-03-30T09:17:11Z</time>
      </trkpt>
      <trkpt lat="43.38234" lon="5.93991">
        <ele>406</ele>
        <time>2017-03-30T09:17:23Z</time>
      </trkpt>
      <trkpt lat="43.38242" lon="5.93987">
        <ele>406</ele>
        <time>2017-03-30T09:17:31Z</time>
      </trkpt>
      <trkpt lat="43.38252" lon="5.93984">
        <ele>407</ele>
        <time>2017-03-30T09:17:41Z</time>
      </trkpt>
      <trkpt lat="43.38262" lon="5.93981">
        <ele>407</ele>
        <time>2017-03-30T09:17:52Z</time>
      </trkpt>
      <trkpt lat="43.38271" lon="5.93977">
        <ele>407</ele>
        <time>2017-03-30T09:18:04Z</time>
      </trkpt>
      <trkpt lat="43.3828" lon="5.93973">
        <ele>407</ele>
        <time>2017-03-30T09:18:13Z</time>
      </trkpt>
      <trkpt lat="43.38289" lon="5.93969">
        <ele>407</ele>
        <time>2017-03-30T09:18:22Z</time>
      </trkpt>
      <trkpt lat="43.38299" lon="5.93964">
        <ele>407</ele>
        <time>2017-03-30T09:18:33Z</time>
      </trkpt>
      <trkpt lat="43.38308" lon="5.93959">
        <ele>408</ele>
        <time>2017-03-30T09:18:41Z</time>
      </trkpt>
      <trkpt lat="43.38318" lon="5.93955">
        <ele>408</ele>
        <time>2017-03-30T09:18:50Z</time>
      </trkpt>
      <trkpt lat="43.38326" lon="5.93951">
        <ele>408</ele>
        <time>2017-03-30T09:18:57Z</time>
      </trkpt>
      <trkpt lat="43.38336" lon="5.93949">
        <ele>408</ele>
        <time>2017-03-30T09:19:06Z</time>
      </trkpt>
      <trkpt lat="43.38345" lon="5.93944">
        <ele>408</ele>
        <time>2017-03-30T09:19:14Z</time>
      </trkpt>
      <trkpt lat="43.38355" lon="5.9394">
        <ele>409</ele>
        <time>2017-03-30T09:19:25Z</time>
      </trkpt>
      <trkpt lat="43.38363" lon="5.93934">
        <ele>409</ele>
        <time>2017-03-30T09:19:34Z</time>
      </trkpt>
      <trkpt lat="43.38372" lon="5.93931">
        <ele>409</ele>
        <time>2017-03-30T09:19:41Z</time>
      </trkpt>
      <trkpt lat="43.3838" lon="5.93922">
        <ele>409</ele>
        <time>2017-03-30T09:19:52Z</time>
      </trkpt>
      <trkpt lat="43.38387" lon="5.93912">
        <ele>409</ele>
        <time>2017-03-30T09:20:03Z</time>
      </trkpt>
      <trkpt lat="43.38396" lon="5.93907">
        <ele>409</ele>
        <time>2017-03-30T09:20:13Z</time>
      </trkpt>
      <trkpt lat="43.38403" lon="5.939">
        <ele>409</ele>
        <time>2017-03-30T09:20:20Z</time>
      </trkpt>
      <trkpt lat="43.38411" lon="5.93892">
        <ele>410</ele>
        <time>2017-03-30T09:20:30Z</time>
      </trkpt>
      <trkpt lat="43.38417" lon="5.93883">
        <ele>410</ele>
        <time>2017-03-30T09:20:39Z</time>
      </trkpt>
      <trkpt lat="43.38425" lon="5.93874">
        <ele>410</ele>
        <time>2017-03-30T09:20:48Z</time>
      </trkpt>
      <trkpt lat="43.38432" lon="5.93865">
        <ele>410</ele>
        <time>2017-03-30T09:20:57Z</time>
      </trkpt>
      <trkpt lat="43.3844" lon="5.93856">
        <ele>410</ele>
        <time>2017-03-30T09:21:06Z</time>
      </trkpt>
      <trkpt lat="43.38448" lon="5.9385">
        <ele>410</ele>
        <time>2017-03-30T09:21:16Z</time>
      </trkpt>
      <trkpt lat="43.38456" lon="5.93844">
        <ele>410</ele>
        <time>2017-03-30T09:21:26Z</time>
      </trkpt>
      <trkpt lat="43.38466" lon="5.93838">
        <ele>410</ele>
        <time>2017-03-30T09:21:34Z</time>
      </trkpt>
      <trkpt lat="43.38475" lon="5.93839">
        <ele>410</ele>
        <time>2017-03-30T09:21:45Z</time>
      </trkpt>
      <trkpt lat="43.38483" lon="5.93835">
        <ele>411</ele>
        <time>2017-03-30T09:21:55Z</time>
      </trkpt>
      <trkpt lat="43.38492" lon="5.93831">
        <ele>411</ele>
        <time>2017-03-30T09:22:06Z</time>
      </trkpt>
      <trkpt lat="43.38501" lon="5.93826">
        <ele>411</ele>
        <time>2017-03-30T09:22:16Z</time>
      </trkpt>
      <trkpt lat="43.38509" lon="5.93819">
        <ele>411</ele>
        <time>2017-03-30T09:22:27Z</time>
      </trkpt>
      <trkpt lat="43.3851" lon="5.93806">
        <ele>411</ele>
        <time>2017-03-30T09:22:39Z</time>
      </trkpt>
      <trkpt lat="43.38508" lon="5.93793">
        <ele>411</ele>
        <time>2017-03-30T09:22:53Z</time>
      </trkpt>
      <trkpt lat="43.38503" lon="5.93781">
        <ele>411</ele>
        <time>2017-03-30T09:23:05Z</time>
      </trkpt>
      <trkpt lat="43.38498" lon="5.9377">
        <ele>411</ele>
        <time>2017-03-30T09:23:14Z</time>
      </trkpt>
      <trkpt lat="43.38495" lon="5.93759">
        <ele>411</ele>
        <time>2017-03-30T09:23:24Z</time>
      </trkpt>
      <trkpt lat="43.38492" lon="5.93747">
        <ele>411</ele>
        <time>2017-03-30T09:23:35Z</time>
      </trkpt>
      <trkpt lat="43.3849" lon="5.93734">
        <ele>411</ele>
        <time>2017-03-30T09:23:51Z</time>
      </trkpt>
      <trkpt lat="43.38486" lon="5.93722">
        <ele>412</ele>
        <time>2017-03-30T09:24:03Z</time>
      </trkpt>
      <trkpt lat="43.38482" lon="5.93711">
        <ele>412</ele>
        <time>2017-03-30T09:24:13Z</time>
      </trkpt>
      <trkpt lat="43.38477" lon="5.93699">
        <ele>412</ele>
        <time>2017-03-30T09:24:23Z</time>
      </trkpt>
      <trkpt lat="43.38473" lon="5.93687">
        <ele>412</ele>
        <time>2017-03-30T09:24:35Z</time>
      </trkpt>
      <trkpt lat="43.38465" lon="5.93681">
        <ele>412</ele>
        <time>2017-03-30T09:24:44Z</time>
      </trkpt>
      <trkpt lat="43.38456" lon="5.93675">
        <ele>412</ele>
        <time>2017-03-30T09:24:53Z</time>
      </trkpt>
      <trkpt lat="43.3845" lon="5.93666">
        <ele>412</ele>
        <time>2017-03-30T09:25:05Z</time>
      </trkpt>
      <trkpt lat="43.3844" lon="5.93663">
        <ele>412</ele>
        <time>2017-03-30T09:25:12Z</time>
      </trkpt>
      <trkpt lat="43.38432" lon="5.93657">
        <ele>412</ele>
        <time>2017-03-30T09:25:20Z</time>
      </trkpt>
      <trkpt lat="43.38425" lon="5.93649">
        <ele>412</ele>
        <time>2017-03-30T09:25:30Z</time>
      </trkpt>
      <trkpt lat="43.38417" lon="5.9364">
        <ele>413</ele>
        <time>2017-03-30T09:25:40Z</time>
      </trkpt>
      <trkpt lat="43.38408" lon="5.93637">
        <ele>413</ele>
        <time>2017-03-30T09:25:52Z</time>
      </trkpt>
      <trkpt lat="43.38401" lon="5.93629">
        <ele>413</ele>
        <time>2017-03-30T09:26:01Z</time>
      </trkpt>
      <trkpt lat="43.38393" lon="5.93623">
        <ele>413</ele>
        <time>2017-03-30T09:26:19Z</time>
      </trkpt>
      <trkpt lat="43.38385" lon="5.93615">
        <ele>413</ele>
        <time>2017-03-30T09:26:56Z</time>
      </trkpt>
      <trkpt lat="43.3838" lon="5.93605">
        <ele>413</ele>
        <time>2017-03-30T09:27:04Z</time>
      </trkpt>
      <trkpt lat="43.38373" lon="5.93596">
        <ele>413</ele>
        <time>2017-03-30T09:27:13Z</time>
      </trkpt>
      <trkpt lat="43.38366" lon="5.93588">
        <ele>413</ele>
        <time>2017-03-30T09:27:22Z</time>
      </trkpt>
      <trkpt lat="43.38358" lon="5.93581">
        <ele>414</ele>
        <time>2017-03-30T09:27:35Z</time>
      </trkpt>
      <trkpt lat="43.38349" lon="5.93579">
        <ele>414</ele>
        <time>2017-03-30T09:27:49Z</time>
      </trkpt>
      <trkpt lat="43.3834" lon="5.93573">
        <ele>414</ele>
        <time>2017-03-30T09:28:01Z</time>
      </trkpt>
      <trkpt lat="43.38335" lon="5.93562">
        <ele>414</ele>
        <time>2017-03-30T09:28:12Z</time>
      </trkpt>
      <trkpt lat="43.38331" lon="5.9355">
        <ele>414</ele>
        <time>2017-03-30T09:28:20Z</time>
      </trkpt>
      <trkpt lat="43.38329" lon="5.93537">
        <ele>414</ele>
        <time>2017-03-30T09:28:28Z</time>
      </trkpt>
      <trkpt lat="43.3833" lon="5.93525">
        <ele>414</ele>
        <time>2017-03-30T09:28:41Z</time>
      </trkpt>
      <trkpt lat="43.38329" lon="5.93511">
        <ele>414</ele>
        <time>2017-03-30T09:28:54Z</time>
      </trkpt>
      <trkpt lat="43.38323" lon="5.935">
        <ele>414</ele>
        <time>2017-03-30T09:29:03Z</time>
      </trkpt>
      <trkpt lat="43.3832" lon="5.93488">
        <ele>414</ele>
        <time>2017-03-30T09:29:15Z</time>
      </trkpt>
      <trkpt lat="43.38321" lon="5.93475">
        <ele>415</ele>
        <time>2017-03-30T09:29:30Z</time>
      </trkpt>
      <trkpt lat="43.38318" lon="5.93463">
        <ele>415</ele>
        <time>2017-03-30T09:29:42Z</time>
      </trkpt>
      <trkpt lat="43.38314" lon="5.93449">
        <ele>415</ele>
        <time>2017-03-30T09:29:54Z</time>
      </trkpt>
      <trkpt lat="43.38319" lon="5.93439">
        <ele>415</ele>
        <time>2017-03-30T09:30:05Z</time>
      </trkpt>
      <trkpt lat="43.38325" lon="5.93428">
        <ele>415</ele>
        <time>2017-03-30T09:30:22Z</time>
      </trkpt>
      <trkpt lat="43.38324" lon="5.93416">
        <ele>415</ele>
        <time>2017-03-30T09:30:34Z</time>
      </trkpt>
      <trkpt lat="43.38321" lon="5.93404">
        <ele>415</ele>
        <time>2017-03-30T09:30:43Z</time>
      </trkpt>
      <trkpt lat="43.38322" lon="5.93391">
        <ele>415</ele>
        <time>2017-03-30T09:30:52Z</time>
      </trkpt>
      <trkpt lat="43.3832" lon="5.93378">
        <ele>415</ele>
        <time>2017-03-30T09:31:06Z</time>
      </trkpt>
      <trkpt lat="43.38319" lon="5.93366">
        <ele>415</ele>
        <time>2017-03-30T09:31:18Z</time>
      </trkpt>
      <trkpt lat="43.38315" lon="5.93355">
        <ele>415</ele>
        <time>2017-03-30T09:31:29Z</time>
      </trkpt>
      <trkpt lat="43.38313" lon="5.93342">
        <ele>416</ele>
        <time>2017-03-30T09:31:39Z</time>
      </trkpt>
      <trkpt lat="43.38313" lon="5.93328">
        <ele>416</ele>
        <time>2017-03-30T09:31:50Z</time>
      </trkpt>
      <trkpt lat="43.38315" lon="5.93315">
        <ele>416</ele>
        <time>2017-03-30T09:31:59Z</time>
      </trkpt>
      <trkpt lat="43.3832" lon="5.93302">
        <ele>416</ele>
        <time>2017-03-30T09:32:10Z</time>
      </trkpt>
      <trkpt lat="43.38324" lon="5.9329">
        <ele>416</ele>
        <time>2017-03-30T09:32:19Z</time>
      </trkpt>
      <trkpt lat="43.38325" lon="5.93276">
        <ele>416</ele>
        <time>2017-03-30T09:32:30Z</time>
      </trkpt>
      <trkpt lat="43.38323" lon="5.93263">
        <ele>416</ele>
        <time>2017-03-30T09:32:41Z</time>
      </trkpt>
      <trkpt lat="43.38322" lon="5.9325">
        <ele>416</ele>
        <time>2017-03-30T09:32:48Z</time>
      </trkpt>
      <trkpt lat="43.38325" lon="5.93238">
        <ele>416</ele>
        <time>2017-03-30T09:32:59Z</time>
      </trkpt>
      <trkpt lat="43.38331" lon="5.93225">
        <ele>416</ele>
        <time>2017-03-30T09:33:11Z</time>
      </trkpt>
      <trkpt lat="43.38333" lon="5.93214">
        <ele>416</ele>
        <time>2017-03-30T09:33:20Z</time>
      </trkpt>
      <trkpt lat="43.38334" lon="5.93201">
        <ele>416</ele>
        <time>2017-03-30T09:33:31Z</time>
      </trkpt>
      <trkpt lat="43.38331" lon="5.93189">
        <ele>416</ele>
        <time>2017-03-30T09:33:38Z</time>
      </trkpt>
      <trkpt lat="43.3833" lon="5.93177">
        <ele>416</ele>
        <time>2017-03-30T09:33:48Z</time>
      </trkpt>
      <trkpt lat="43.38336" lon="5.93168">
        <ele>416</ele>
        <time>2017-03-30T09:33:56Z</time>
      </trkpt>
      <trkpt lat="43.38335" lon="5.93156">
        <ele>416</ele>
        <time>2017-03-30T09:34:07Z</time>
      </trkpt>
      <trkpt lat="43.38334" lon="5.93142">
        <ele>416</ele>
        <time>2017-03-30T09:34:16Z</time>
      </trkpt>
      <trkpt lat="43.38334" lon="5.93129">
        <ele>416</ele>
        <time>2017-03-30T09:34:26Z</time>
      </trkpt>
      <trkpt lat="43.38335" lon="5.93116">
        <ele>416</ele>
        <time>2017-03-30T09:34:37Z</time>
      </trkpt>
      <trkpt lat="43.38333" lon="5.93104">
        <ele>416</ele>
        <time>2017-03-30T09:34:45Z</time>
      </trkpt>
      <trkpt lat="43.38334" lon="5.9309">
        <ele>416</ele>
        <time>2017-03-30T09:34:53Z</time>
      </trkpt>
      <trkpt lat="43.38339" lon="5.9308">
        <ele>416</ele>
        <time>2017-03-30T09:35:01Z</time>
      </trkpt>
      <trkpt lat="43.38344" lon="5.93069">
        <ele>416</ele>
        <time>2017-03-30T09:35:13Z</time>
      </trkpt>
      <trkpt lat="43.38337" lon="5.93061">
        <ele>416</ele>
        <time>2017-03-30T09:35:41Z</time>
      </trkpt>
      <trkpt lat="43.38328" lon="5.9306">
        <ele>416</ele>
        <time>2017-03-30T09:36:01Z</time>
      </trkpt>
      <trkpt lat="43.38319" lon="5.9306">
        <ele>417</ele>
        <time>2017-03-30T09:36:18Z</time>
      </trkpt>
      <trkpt lat="43.3831" lon="5.93058">
        <ele>417</ele>
        <time>2017-03-30T09:36:30Z</time>
      </trkpt>
      <trkpt lat="43.383" lon="5.93056">
        <ele>417</ele>
        <time>2017-03-30T09:36:55Z</time>
      </trkpt>
      <trkpt lat="43.38292" lon="5.9305">
        <ele>417</ele>
        <time>2017-03-30T09:37:10Z</time>
      </trkpt>
      <trkpt lat="43.38285" lon="5.93042">
        <ele>417</ele>
        <time>2017-03-30T09:37:27Z</time>
      </trkpt>
      <trkpt lat="43.38276" lon="5.9304">
        <ele>417</ele>
        <time>2017-03-30T09:37:43Z</time>
      </trkpt>
      <trkpt lat="43.38268" lon="5.93033">
        <ele>417</ele>
        <time>2017-03-30T09:38:05Z</time>
      </trkpt>
      <trkpt lat="43.38259" lon="5.93031">
        <ele>417</ele>
        <time>2017-03-30T09:38:13Z</time>
      </trkpt>
      <trkpt lat="43.3825" lon="5.93034">
        <ele>417</ele>
        <time>2017-03-30T09:38:23Z</time>
      </trkpt>
      <trkpt lat="43.3824" lon="5.93028">
        <ele>417</ele>
        <time>2017-03-30T09:38:32Z</time>
      </trkpt>
      <trkpt lat="43.38231" lon="5.93022">
        <ele>417</ele>
        <time>2017-03-30T09:38:41Z</time>
      </trkpt>
      <trkpt lat="43.38222" lon="5.93021">
        <ele>417</ele>
        <time>2017-03-30T09:38:51Z</time>
      </trkpt>
      <trkpt lat="43.38213" lon="5.93021">
        <ele>417</ele>
        <time>2017-03-30T09:39:04Z</time>
      </trkpt>
      <trkpt lat="43.38204" lon="5.93017">
        <ele>417</ele>
        <time>2017-03-30T09:39:16Z</time>
      </trkpt>
      <trkpt lat="43.38198" lon="5.93007">
        <ele>417</ele>
        <time>2017-03-30T09:39:28Z</time>
      </trkpt>
      <trkpt lat="43.38189" lon="5.93004">
        <ele>417</ele>
        <time>2017-03-30T09:39:36Z</time>
      </trkpt>
      <trkpt lat="43.3818" lon="5.93006">
        <ele>417</ele>
        <time>2017-03-30T09:39:49Z</time>
      </trkpt>
      <trkpt lat="43.38171" lon="5.93001">
        <ele>417</ele>
        <time>2017-03-30T09:39:59Z</time>
      </trkpt>
      <trkpt lat="43.38163" lon="5.92995">
        <ele>417</ele>
        <time>2017-03-30T09:40:09Z</time>
      </trkpt>
      <trkpt lat="43.38156" lon="5.92986">
        <ele>417</ele>
        <time>2017-03-30T09:40:20Z</time>
      </trkpt>
      <trkpt lat="43.38149" lon="5.92978">
        <ele>417</ele>
        <time>2017-03-30T09:40:27Z</time>
      </trkpt>
      <trkpt lat="43.38144" lon="5.92968">
        <ele>417</ele>
        <time>2017-03-30T09:40:45Z</time>
      </trkpt>
      <trkpt lat="43.38141" lon="5.92955">
        <ele>417</ele>
        <time>2017-03-30T09:40:54Z</time>
      </trkpt>
      <trkpt lat="43.38138" lon="5.92942">
        <ele>417</ele>
        <time>2017-03-30T09:41:04Z</time>
      </trkpt>
      <trkpt lat="43.38138" lon="5.9293">
        <ele>417</ele>
        <time>2017-03-30T09:41:12Z</time>
      </trkpt>
      <trkpt lat="43.38131" lon="5.92921">
        <ele>417</ele>
        <time>2017-03-30T09:41:27Z</time>
      </trkpt>
      <trkpt lat="43.38123" lon="5.92914">
        <ele>417</ele>
        <time>2017-03-30T09:41:35Z</time>
      </trkpt>
      <trkpt lat="43.38113" lon="5.92909">
        <ele>417</ele>
        <time>2017-03-30T09:41:46Z</time>
      </trkpt>
      <trkpt lat="43.38106" lon="5.92901">
        <ele>417</ele>
        <time>2017-03-30T09:41:56Z</time>
      </trkpt>
      <trkpt lat="43.38099" lon="5.92892">
        <ele>417</ele>
        <time>2017-03-30T09:42:05Z</time>
      </trkpt>
      <trkpt lat="43.38092" lon="5.92884">
        <ele>417</ele>
        <time>2017-03-30T09:42:14Z</time>
      </trkpt>
      <trkpt lat="43.38084" lon="5.92877">
        <ele>417</ele>
        <time>2017-03-30T09:42:27Z</time>
      </trkpt>
      <trkpt lat="43.38079" lon="5.92867">
        <ele>417</ele>
        <time>2017-03-30T09:42:38Z</time>
      </trkpt>
      <trkpt lat="43.38074" lon="5.92855">
        <ele>417</ele>
        <time>2017-03-30T09:42:48Z</time>
      </trkpt>
      <trkpt lat="43.38069" lon="5.92845">
        <ele>417</ele>
        <time>2017-03-30T09:42:58Z</time>
      </trkpt>
      <trkpt lat="43.38064" lon="5.92835">
        <ele>417</ele>
        <time>2017-03-30T09:43:08Z</time>
      </trkpt>
      <trkpt lat="43.3806" lon="5.92823">
        <ele>417</ele>
        <time>2017-03-30T09:43:19Z</time>
      </trkpt>
      <trkpt lat="43.38053" lon="5.92814">
        <ele>417</ele>
        <time>2017-03-30T09:43:26Z</time>
      </trkpt>
      <trkpt lat="43.38048" lon="5.92803">
        <ele>417</ele>
        <time>2017-03-30T09:43:34Z</time>
      </trkpt>
      <trkpt lat="43.38045" lon="5.92791">
        <ele>416</ele>
        <time>2017-03-30T09:43:47Z</time>
      </trkpt>
      <trkpt lat="43.3804" lon="5.9278">
        <ele>416</ele>
        <time>2017-03-30T09:43:57Z</time>
      </trkpt>
      <trkpt lat="43.38032" lon="5.92772">
        <ele>416</ele>
        <time>2017-03-30T09:44:04Z</time>
      </trkpt>
      <trkpt lat="43.38027" lon="5.9276">
        <ele>416</ele>
        <time>2017-03-30T09:44:14Z</time>
      </trkpt>
      <trkpt lat="43.3803" lon="5.92748">
        <ele>416</ele>
        <time>2017-03-30T09:44:22Z</time>
      </trkpt>
      <trkpt lat="43.38033" lon="5.92736">
        <ele>416</ele>
        <time>2017-03-30T09:44:31Z</time>
      </trkpt>
      <trkpt lat="43.38036" lon="5.92724">
        <ele>416</ele>
        <time>2017-03-30T09:44:41Z</time>
      </trkpt>
      <trkpt lat="43.38037" lon="5.92711">
        <ele>416</ele>
        <time>2017-03-30T09:44:52Z</time>
      </trkpt>
      <trkpt lat="43.38038" lon="5.92698">
        <ele>416</ele>
        <time>2017-03-30T09:45:02Z</time>
      </trkpt>
      <trkpt lat="43.38034" lon="5.92687">
        <ele>416</ele>
        <time>2017-03-30T09:45:09Z</time>
      </trkpt>
      <trkpt lat="43.38028" lon="5.92678">
        <ele>416</ele>
        <time>2017-03-30T09:45:22Z</time>
      </trkpt>
      <trkpt lat="43.38019" lon="5.9267">
        <ele>416</ele>
        <time>2017-03-30T09:45:30Z</time>
      </trkpt>
      <trkpt lat="43.38012" lon="5.92662">
        <ele>416</ele>
        <time>2017-03-30T09:45:46Z</time>
      </trkpt>
      <trkpt lat="43.38008" lon="5.9265">
        <ele>415</ele>
        <time>2017-03-30T09:45:57Z</time>
      </trkpt>
      <trkpt lat="43.38011" lon="5.92638">
        <ele>415</ele>
        <time>2017-03-30T09:46:05Z</time>
      </trkpt>
      <trkpt lat="43.38012" lon="5.92624">
        <ele>415</ele>
        <time>2017-03-30T09:46:19Z</time>
      </trkpt>
      <trkpt lat="43.3801" lon="5.92611">
        <ele>415</ele>
        <time>2017-03-30T09:46:35Z</time>
      </trkpt>
      <trkpt lat="43.3801" lon="5.92598">
        <ele>415</ele>
        <time>2017-03-30T09:46:46Z</time>
      </trkpt>
      <trkpt lat="43.38006" lon="5.92587">
        <ele>415</ele>
        <time>2017-03-30T09:46:57Z</time>
      </trkpt>
      <trkpt lat="43.37998" lon="5.9258">
        <ele>415</ele>
        <time>2017-03-30T09:47:15Z</time>
      </trkpt>
      <trkpt lat="43.37992" lon="5.9257">
        <ele>415</ele>
        <time>2017-03-30T09:47:33Z</time>
      </trkpt>
      <trkpt lat="43.37983" lon="5.92568">
        <ele>415</ele>
        <time>2017-03-30T09:47:47Z</time>
      </trkpt>
      <trkpt lat="43.37974" lon="5.92573">
        <ele>415</ele>
        <time>2017-03-30T09:47:54Z</time>
      </trkpt>
      <trkpt lat="43.37967" lon="5.92582">
        <ele>415</ele>
        <time>2017-03-30T09:48:06Z</time>
      </trkpt>
      <trkpt lat="43.37959" lon="5.92586">
        <ele>415</ele>
        <time>2017-03-30T09:48:19Z</time>
      </trkpt>
      <trkpt lat="43.37955" lon="5.92574">
        <ele>415</ele>
        <time>2017-03-30T09:48:31Z</time>
      </trkpt>
      <trkpt lat="43.37954" lon="5.92561">
        <ele>415</ele>
        <time>2017-03-30T09:48:39Z</time>
      </trkpt>
      <trkpt lat="43.37955" lon="5.92548">
        <ele>415</ele>
        <time>2017-03-30T09:48:45Z</time>
      </trkpt>
      <trkpt lat="43.37956" lon="5.92535">
        <ele>415</ele>
        <time>2017-03-30T09:48:55Z</time>
      </trkpt>
      <trkpt lat="43.37954" lon="5.92522">
        <ele>416</ele>
        <time>2017-03-30T09:49:07Z</time>
      </trkpt>
      <trkpt lat="43.37955" lon="5.92508">
        <ele>416</ele>
        <time>2017-03-30T09:49:19Z</time>
      </trkpt>
      <trkpt lat="43.37949" lon="5.92499">
        <ele>416</ele>
        <time>2017-03-30T09:49:35Z</time>
      </trkpt>
      <trkpt lat="43.37948" lon="5.92486">
        <ele>417</ele>
        <time>2017-03-30T09:57:04Z</time>
      </trkpt>
      <trkpt lat="43.37958" lon="5.92485">
        <ele>417</ele>
        <time>2017-03-30T09:57:24Z</time>
      </trkpt>
      <trkpt lat="43.37949" lon="5.92487">
        <ele>417</ele>
        <time>2017-03-30T09:57:35Z</time>
      </trkpt>
      <trkpt lat="43.3794" lon="5.92489">
        <ele>417</ele>
        <time>2017-03-30T09:57:58Z</time>
      </trkpt>
      <trkpt lat="43.37932" lon="5.92482">
        <ele>417</ele>
        <time>2017-03-30T09:58:14Z</time>
      </trkpt>
      <trkpt lat="43.37924" lon="5.92474">
        <ele>417</ele>
        <time>2017-03-30T09:58:24Z</time>
      </trkpt>
      <trkpt lat="43.37918" lon="5.92464">
        <ele>418</ele>
        <time>2017-03-30T09:58:44Z</time>
      </trkpt>
      <trkpt lat="43.37911" lon="5.92454">
        <ele>418</ele>
        <time>2017-03-30T09:58:52Z</time>
      </trkpt>
      <trkpt lat="43.37909" lon="5.92442">
        <ele>418</ele>
        <time>2017-03-30T09:59:06Z</time>
      </trkpt>
      <trkpt lat="43.37903" lon="5.92431">
        <ele>418</ele>
        <time>2017-03-30T09:59:18Z</time>
      </trkpt>
      <trkpt lat="43.37895" lon="5.92425">
        <ele>418</ele>
        <time>2017-03-30T09:59:27Z</time>
      </trkpt>
      <trkpt lat="43.37894" lon="5.92411">
        <ele>419</ele>
        <time>2017-03-30T09:59:45Z</time>
      </trkpt>
      <trkpt lat="43.37893" lon="5.92399">
        <ele>419</ele>
        <time>2017-03-30T10:00:04Z</time>
      </trkpt>
      <trkpt lat="43.37893" lon="5.92386">
        <ele>419</ele>
        <time>2017-03-30T10:00:19Z</time>
      </trkpt>
      <trkpt lat="43.37885" lon="5.92376">
        <ele>420</ele>
        <time>2017-03-30T10:00:33Z</time>
      </trkpt>
      <trkpt lat="43.3788" lon="5.92366">
        <ele>421</ele>
        <time>2017-03-30T10:00:50Z</time>
      </trkpt>
      <trkpt lat="43.37877" lon="5.92354">
        <ele>421</ele>
        <time>2017-03-30T10:01:03Z</time>
      </trkpt>
      <trkpt lat="43.37871" lon="5.92344">
        <ele>422</ele>
        <time>2017-03-30T10:01:17Z</time>
      </trkpt>
      <trkpt lat="43.37865" lon="5.92335">
        <ele>423</ele>
        <time>2017-03-30T10:01:32Z</time>
      </trkpt>
      <trkpt lat="43.37856" lon="5.9233">
        <ele>424</ele>
        <time>2017-03-30T10:01:50Z</time>
      </trkpt>
      <trkpt lat="43.37846" lon="5.92325">
        <ele>424</ele>
        <time>2017-03-30T10:02:01Z</time>
      </trkpt>
      <trkpt lat="43.37837" lon="5.92325">
        <ele>425</ele>
        <time>2017-03-30T10:02:11Z</time>
      </trkpt>
      <trkpt lat="43.3783" lon="5.92316">
        <ele>425</ele>
        <time>2017-03-30T10:02:24Z</time>
      </trkpt>
      <trkpt lat="43.3782" lon="5.92316">
        <ele>426</ele>
        <time>2017-03-30T10:02:39Z</time>
      </trkpt>
      <trkpt lat="43.37812" lon="5.92312">
        <ele>427</ele>
        <time>2017-03-30T10:02:49Z</time>
      </trkpt>
      <trkpt lat="43.37803" lon="5.92308">
        <ele>427</ele>
        <time>2017-03-30T10:03:03Z</time>
      </trkpt>
      <trkpt lat="43.37796" lon="5.92299">
        <ele>428</ele>
        <time>2017-03-30T10:03:15Z</time>
      </trkpt>
      <trkpt lat="43.37788" lon="5.92293">
        <ele>429</ele>
        <time>2017-03-30T10:03:28Z</time>
      </trkpt>
      <trkpt lat="43.3778" lon="5.92287">
        <ele>429</ele>
        <time>2017-03-30T10:03:42Z</time>
      </trkpt>
      <trkpt lat="43.37771" lon="5.92285">
        <ele>430</ele>
        <time>2017-03-30T10:03:56Z</time>
      </trkpt>
      <trkpt lat="43.37762" lon="5.92281">
        <ele>431</ele>
        <time>2017-03-30T10:04:11Z</time>
      </trkpt>
      <trkpt lat="43.37752" lon="5.9228">
        <ele>432</ele>
        <time>2017-03-30T10:04:28Z</time>
      </trkpt>
      <trkpt lat="43.37743" lon="5.92285">
        <ele>432</ele>
        <time>2017-03-30T10:04:42Z</time>
      </trkpt>
      <trkpt lat="43.37734" lon="5.92283">
        <ele>433</ele>
        <time>2017-03-30T10:04:58Z</time>
      </trkpt>
      <trkpt lat="43.37725" lon="5.92285">
        <ele>433</ele>
        <time>2017-03-30T10:05:13Z</time>
      </trkpt>
      <trkpt lat="43.37715" lon="5.92285">
        <ele>434</ele>
        <time>2017-03-30T10:05:23Z</time>
      </trkpt>
      <trkpt lat="43.37706" lon="5.92283">
        <ele>434</ele>
        <time>2017-03-30T10:05:36Z</time>
      </trkpt>
      <trkpt lat="43.377" lon="5.92273">
        <ele>434</ele>
        <time>2017-03-30T10:05:48Z</time>
      </trkpt>
      <trkpt lat="43.37692" lon="5.92266">
        <ele>435</ele>
        <time>2017-03-30T10:06:00Z</time>
      </trkpt>
      <trkpt lat="43.37682" lon="5.92267">
        <ele>436</ele>
        <time>2017-03-30T10:06:18Z</time>
      </trkpt>
      <trkpt lat="43.37673" lon="5.9227">
        <ele>436</ele>
        <time>2017-03-30T10:06:28Z</time>
      </trkpt>
      <trkpt lat="43.37667" lon="5.92279">
        <ele>437</ele>
        <time>2017-03-30T10:06:40Z</time>
      </trkpt>
      <trkpt lat="43.37661" lon="5.92288">
        <ele>438</ele>
        <time>2017-03-30T10:06:52Z</time>
      </trkpt>
      <trkpt lat="43.37652" lon="5.92294">
        <ele>438</ele>
        <time>2017-03-30T10:07:03Z</time>
      </trkpt>
      <trkpt lat="43.37643" lon="5.92297">
        <ele>439</ele>
        <time>2017-03-30T10:07:16Z</time>
      </trkpt>
      <trkpt lat="43.37635" lon="5.92303">
        <ele>440</ele>
        <time>2017-03-30T10:07:29Z</time>
      </trkpt>
      <trkpt lat="43.37627" lon="5.9231">
        <ele>440</ele>
        <time>2017-03-30T10:07:33Z</time>
      </trkpt>
      <trkpt lat="43.37619" lon="5.92314">
        <ele>440</ele>
        <time>2017-03-30T10:07:42Z</time>
      </trkpt>
      <trkpt lat="43.3761" lon="5.92318">
        <ele>440</ele>
        <time>2017-03-30T10:07:51Z</time>
      </trkpt>
      <trkpt lat="43.37606" lon="5.9233">
        <ele>441</ele>
        <time>2017-03-30T10:08:03Z</time>
      </trkpt>
      <trkpt lat="43.37604" lon="5.92342">
        <ele>441</ele>
        <time>2017-03-30T10:08:14Z</time>
      </trkpt>
      <trkpt lat="43.37602" lon="5.92354">
        <ele>442</ele>
        <time>2017-03-30T10:08:24Z</time>
      </trkpt>
      <trkpt lat="43.37596" lon="5.92364">
        <ele>442</ele>
        <time>2017-03-30T10:08:36Z</time>
      </trkpt>
      <trkpt lat="43.37589" lon="5.92373">
        <ele>443</ele>
        <time>2017-03-30T10:08:48Z</time>
      </trkpt>
      <trkpt lat="43.37582" lon="5.92383">
        <ele>443</ele>
        <time>2017-03-30T10:08:59Z</time>
      </trkpt>
      <trkpt lat="43.37576" lon="5.92393">
        <ele>443</ele>
        <time>2017-03-30T10:09:09Z</time>
      </trkpt>
      <trkpt lat="43.3757" lon="5.92403">
        <ele>444</ele>
        <time>2017-03-30T10:09:17Z</time>
      </trkpt>
      <trkpt lat="43.37563" lon="5.92415">
        <ele>444</ele>
        <time>2017-03-30T10:09:25Z</time>
      </trkpt>
      <trkpt lat="43.37558" lon="5.92427">
        <ele>445</ele>
        <time>2017-03-30T10:09:35Z</time>
      </trkpt>
      <trkpt lat="43.37552" lon="5.92437">
        <ele>446</ele>
        <time>2017-03-30T10:09:47Z</time>
      </trkpt>
      <trkpt lat="43.37545" lon="5.92445">
        <ele>446</ele>
        <time>2017-03-30T10:09:56Z</time>
      </trkpt>
      <trkpt lat="43.37539" lon="5.92456">
        <ele>446</ele>
        <time>2017-03-30T10:10:04Z</time>
      </trkpt>
      <trkpt lat="43.37532" lon="5.92465">
        <ele>447</ele>
        <time>2017-03-30T10:10:14Z</time>
      </trkpt>
      <trkpt lat="43.37524" lon="5.92473">
        <ele>447</ele>
        <time>2017-03-30T10:10:25Z</time>
      </trkpt>
      <trkpt lat="43.37523" lon="5.92485">
        <ele>448</ele>
        <time>2017-03-30T10:10:35Z</time>
      </trkpt>
      <trkpt lat="43.37521" lon="5.92498">
        <ele>448</ele>
        <time>2017-03-30T10:10:47Z</time>
      </trkpt>
      <trkpt lat="43.37518" lon="5.9251">
        <ele>449</ele>
        <time>2017-03-30T10:10:57Z</time>
      </trkpt>
      <trkpt lat="43.37517" lon="5.92522">
        <ele>449</ele>
        <time>2017-03-30T10:11:03Z</time>
      </trkpt>
      <trkpt lat="43.37512" lon="5.92534">
        <ele>450</ele>
        <time>2017-03-30T10:11:16Z</time>
      </trkpt>
      <trkpt lat="43.37507" lon="5.92544">
        <ele>450</ele>
        <time>2017-03-30T10:11:27Z</time>
      </trkpt>
      <trkpt lat="43.37501" lon="5.92556">
        <ele>451</ele>
        <time>2017-03-30T10:11:41Z</time>
      </trkpt>
      <trkpt lat="43.37496" lon="5.92567">
        <ele>451</ele>
        <time>2017-03-30T10:11:50Z</time>
      </trkpt>
      <trkpt lat="43.37489" lon="5.92574">
        <ele>452</ele>
        <time>2017-03-30T10:12:00Z</time>
      </trkpt>
      <trkpt lat="43.37483" lon="5.92585">
        <ele>452</ele>
        <time>2017-03-30T10:12:11Z</time>
      </trkpt>
      <trkpt lat="43.37478" lon="5.92596">
        <ele>453</ele>
        <time>2017-03-30T10:12:21Z</time>
      </trkpt>
      <trkpt lat="43.37471" lon="5.92605">
        <ele>453</ele>
        <time>2017-03-30T10:12:33Z</time>
      </trkpt>
      <trkpt lat="43.37467" lon="5.92616">
        <ele>453</ele>
        <time>2017-03-30T10:12:43Z</time>
      </trkpt>
      <trkpt lat="43.37465" lon="5.92628">
        <ele>454</ele>
        <time>2017-03-30T10:12:52Z</time>
      </trkpt>
      <trkpt lat="43.37458" lon="5.92637">
        <ele>454</ele>
        <time>2017-03-30T10:13:03Z</time>
      </trkpt>
      <trkpt lat="43.37451" lon="5.92645">
        <ele>454</ele>
        <time>2017-03-30T10:13:13Z</time>
      </trkpt>
      <trkpt lat="43.37443" lon="5.92651">
        <ele>454</ele>
        <time>2017-03-30T10:13:25Z</time>
      </trkpt>
      <trkpt lat="43.37434" lon="5.92653">
        <ele>455</ele>
        <time>2017-03-30T10:13:35Z</time>
      </trkpt>
      <trkpt lat="43.37429" lon="5.92665">
        <ele>455</ele>
        <time>2017-03-30T10:13:46Z</time>
      </trkpt>
      <trkpt lat="43.37426" lon="5.92678">
        <ele>455</ele>
        <time>2017-03-30T10:13:57Z</time>
      </trkpt>
      <trkpt lat="43.37421" lon="5.92689">
        <ele>455</ele>
        <time>2017-03-30T10:14:10Z</time>
      </trkpt>
      <trkpt lat="43.37412" lon="5.92692">
        <ele>455</ele>
        <time>2017-03-30T10:14:19Z</time>
      </trkpt>
      <trkpt lat="43.37402" lon="5.92692">
        <ele>455</ele>
        <time>2017-03-30T10:14:29Z</time>
      </trkpt>
      <trkpt lat="43.37394" lon="5.92687">
        <ele>455</ele>
        <time>2017-03-30T10:14:38Z</time>
      </trkpt>
      <trkpt lat="43.37386" lon="5.92678">
        <ele>455</ele>
        <time>2017-03-30T10:14:49Z</time>
      </trkpt>
      <trkpt lat="43.37377" lon="5.92672">
        <ele>455</ele>
        <time>2017-03-30T10:14:59Z</time>
      </trkpt>
      <trkpt lat="43.37368" lon="5.92667">
        <ele>455</ele>
        <time>2017-03-30T10:15:12Z</time>
      </trkpt>
      <trkpt lat="43.3736" lon="5.92661">
        <ele>455</ele>
        <time>2017-03-30T10:15:23Z</time>
      </trkpt>
      <trkpt lat="43.37352" lon="5.92654">
        <ele>455</ele>
        <time>2017-03-30T10:15:33Z</time>
      </trkpt>
      <trkpt lat="43.37343" lon="5.92649">
        <ele>455</ele>
        <time>2017-03-30T10:15:48Z</time>
      </trkpt>
      <trkpt lat="43.37333" lon="5.92652">
        <ele>455</ele>
        <time>2017-03-30T10:15:58Z</time>
      </trkpt>
      <trkpt lat="43.37326" lon="5.92661">
        <ele>455</ele>
        <time>2017-03-30T10:16:10Z</time>
      </trkpt>
      <trkpt lat="43.37321" lon="5.92673">
        <ele>455</ele>
        <time>2017-03-30T10:16:23Z</time>
      </trkpt>
      <trkpt lat="43.37319" lon="5.92686">
        <ele>455</ele>
        <time>2017-03-30T10:16:34Z</time>
      </trkpt>
      <trkpt lat="43.37316" lon="5.92698">
        <ele>455</ele>
        <time>2017-03-30T10:16:46Z</time>
      </trkpt>
      <trkpt lat="43.37313" lon="5.9271">
        <ele>455</ele>
        <time>2017-03-30T10:16:54Z</time>
      </trkpt>
      <trkpt lat="43.3731" lon="5.92722">
        <ele>455</ele>
        <time>2017-03-30T10:17:01Z</time>
      </trkpt>
      <trkpt lat="43.37311" lon="5.92735">
        <ele>456</ele>
        <time>2017-03-30T10:17:14Z</time>
      </trkpt>
      <trkpt lat="43.37309" lon="5.92748">
        <ele>456</ele>
        <time>2017-03-30T10:17:27Z</time>
      </trkpt>
      <trkpt lat="43.37304" lon="5.9276">
        <ele>456</ele>
        <time>2017-03-30T10:17:38Z</time>
      </trkpt>
      <trkpt lat="43.37301" lon="5.92772">
        <ele>457</ele>
        <time>2017-03-30T10:17:48Z</time>
      </trkpt>
      <trkpt lat="43.37297" lon="5.92784">
        <ele>457</ele>
        <time>2017-03-30T10:18:00Z</time>
      </trkpt>
      <trkpt lat="43.37297" lon="5.92797">
        <ele>457</ele>
        <time>2017-03-30T10:18:11Z</time>
      </trkpt>
      <trkpt lat="43.37298" lon="5.9281">
        <ele>457</ele>
        <time>2017-03-30T10:18:20Z</time>
      </trkpt>
      <trkpt lat="43.37294" lon="5.92821">
        <ele>458</ele>
        <time>2017-03-30T10:21:24Z</time>
      </trkpt>
      <trkpt lat="43.37289" lon="5.92833">
        <ele>458</ele>
        <time>2017-03-30T10:25:54Z</time>
      </trkpt>
      <trkpt lat="43.37281" lon="5.92841">
        <ele>458</ele>
        <time>2017-03-30T10:26:11Z</time>
      </trkpt>
      <trkpt lat="43.37273" lon="5.92849">
        <ele>458</ele>
        <time>2017-03-30T10:26:19Z</time>
      </trkpt>
      <trkpt lat="43.37265" lon="5.92856">
        <ele>457</ele>
        <time>2017-03-30T10:26:28Z</time>
      </trkpt>
      <trkpt lat="43.37261" lon="5.92867">
        <ele>457</ele>
        <time>2017-03-30T10:26:40Z</time>
      </trkpt>
      <trkpt lat="43.37257" lon="5.92878">
        <ele>457</ele>
        <time>2017-03-30T10:26:47Z</time>
      </trkpt>
      <trkpt lat="43.37251" lon="5.92889">
        <ele>457</ele>
        <time>2017-03-30T10:26:58Z</time>
      </trkpt>
      <trkpt lat="43.37245" lon="5.92898">
        <ele>457</ele>
        <time>2017-03-30T10:27:09Z</time>
      </trkpt>
      <trkpt lat="43.37236" lon="5.92902">
        <ele>457</ele>
        <time>2017-03-30T10:27:19Z</time>
      </trkpt>
      <trkpt lat="43.37226" lon="5.929">
        <ele>457</ele>
        <time>2017-03-30T10:27:29Z</time>
      </trkpt>
      <trkpt lat="43.37219" lon="5.92893">
        <ele>457</ele>
        <time>2017-03-30T10:27:40Z</time>
      </trkpt>
      <trkpt lat="43.3721" lon="5.92887">
        <ele>456</ele>
        <time>2017-03-30T10:27:51Z</time>
      </trkpt>
      <trkpt lat="43.37201" lon="5.9288">
        <ele>456</ele>
        <time>2017-03-30T10:28:01Z</time>
      </trkpt>
      <trkpt lat="43.37191" lon="5.92877">
        <ele>456</ele>
        <time>2017-03-30T10:28:13Z</time>
      </trkpt>
      <trkpt lat="43.37182" lon="5.92876">
        <ele>456</ele>
        <time>2017-03-30T10:28:23Z</time>
      </trkpt>
      <trkpt lat="43.37175" lon="5.92883">
        <ele>455</ele>
        <time>2017-03-30T10:28:36Z</time>
      </trkpt>
      <trkpt lat="43.3717" lon="5.92894">
        <ele>455</ele>
        <time>2017-03-30T10:28:46Z</time>
      </trkpt>
      <trkpt lat="43.37162" lon="5.92902">
        <ele>455</ele>
        <time>2017-03-30T10:28:59Z</time>
      </trkpt>
      <trkpt lat="43.37153" lon="5.92903">
        <ele>455</ele>
        <time>2017-03-30T10:29:05Z</time>
      </trkpt>
      <trkpt lat="43.37144" lon="5.92907">
        <ele>454</ele>
        <time>2017-03-30T10:29:21Z</time>
      </trkpt>
      <trkpt lat="43.37134" lon="5.9291">
        <ele>454</ele>
        <time>2017-03-30T10:29:31Z</time>
      </trkpt>
      <trkpt lat="43.37125" lon="5.92914">
        <ele>454</ele>
        <time>2017-03-30T10:29:44Z</time>
      </trkpt>
      <trkpt lat="43.37116" lon="5.92914">
        <ele>454</ele>
        <time>2017-03-30T10:29:55Z</time>
      </trkpt>
      <trkpt lat="43.37106" lon="5.92914">
        <ele>453</ele>
        <time>2017-03-30T10:30:06Z</time>
      </trkpt>
      <trkpt lat="43.37096" lon="5.92916">
        <ele>453</ele>
        <time>2017-03-30T10:30:18Z</time>
      </trkpt>
      <trkpt lat="43.37086" lon="5.9292">
        <ele>453</ele>
        <time>2017-03-30T10:30:28Z</time>
      </trkpt>
      <trkpt lat="43.37077" lon="5.92921">
        <ele>452</ele>
        <time>2017-03-30T10:30:41Z</time>
      </trkpt>
      <trkpt lat="43.37068" lon="5.92919">
        <ele>452</ele>
        <time>2017-03-30T10:30:51Z</time>
      </trkpt>
      <trkpt lat="43.37064" lon="5.92907">
        <ele>451</ele>
        <time>2017-03-30T10:31:02Z</time>
      </trkpt>
      <trkpt lat="43.37064" lon="5.92893">
        <ele>451</ele>
        <time>2017-03-30T10:31:09Z</time>
      </trkpt>
      <trkpt lat="43.37061" lon="5.9288">
        <ele>451</ele>
        <time>2017-03-30T10:31:17Z</time>
      </trkpt>
      <trkpt lat="43.37061" lon="5.92868">
        <ele>451</ele>
        <time>2017-03-30T10:31:28Z</time>
      </trkpt>
      <trkpt lat="43.37056" lon="5.92857">
        <ele>450</ele>
        <time>2017-03-30T10:32:16Z</time>
      </trkpt>
      <trkpt lat="43.37046" lon="5.92855">
        <ele>449</ele>
        <time>2017-03-30T10:32:33Z</time>
      </trkpt>
      <trkpt lat="43.37041" lon="5.92845">
        <ele>449</ele>
        <time>2017-03-30T10:32:48Z</time>
      </trkpt>
      <trkpt lat="43.37037" lon="5.92833">
        <ele>448</ele>
        <time>2017-03-30T10:33:03Z</time>
      </trkpt>
      <trkpt lat="43.37029" lon="5.92833">
        <ele>448</ele>
        <time>2017-03-30T10:33:18Z</time>
      </trkpt>
      <trkpt lat="43.37022" lon="5.92824">
        <ele>448</ele>
        <time>2017-03-30T10:33:53Z</time>
      </trkpt>
      <trkpt lat="43.37022" lon="5.92811">
        <ele>447</ele>
        <time>2017-03-30T10:34:03Z</time>
      </trkpt>
      <trkpt lat="43.37014" lon="5.92805">
        <ele>446</ele>
        <time>2017-03-30T10:35:20Z</time>
      </trkpt>
      <trkpt lat="43.3701" lon="5.92794">
        <ele>446</ele>
        <time>2017-03-30T10:36:06Z</time>
      </trkpt>
      <trkpt lat="43.37011" lon="5.92781">
        <ele>445</ele>
        <time>2017-03-30T10:36:32Z</time>
      </trkpt>
      <trkpt lat="43.37005" lon="5.92773">
        <ele>445</ele>
        <time>2017-03-30T10:36:42Z</time>
      </trkpt>
      <trkpt lat="43.36996" lon="5.92769">
        <ele>445</ele>
        <time>2017-03-30T10:36:51Z</time>
      </trkpt>
      <trkpt lat="43.36987" lon="5.92765">
        <ele>445</ele>
        <time>2017-03-30T10:36:59Z</time>
      </trkpt>
      <trkpt lat="43.36979" lon="5.92758">
        <ele>445</ele>
        <time>2017-03-30T10:37:05Z</time>
      </trkpt>
      <trkpt lat="43.36975" lon="5.92746">
        <ele>444</ele>
        <time>2017-03-30T10:37:16Z</time>
      </trkpt>
      <trkpt lat="43.36981" lon="5.92736">
        <ele>444</ele>
        <time>2017-03-30T10:37:26Z</time>
      </trkpt>
      <trkpt lat="43.36983" lon="5.92722">
        <ele>444</ele>
        <time>2017-03-30T10:37:37Z</time>
      </trkpt>
      <trkpt lat="43.36981" lon="5.9271">
        <ele>444</ele>
        <time>2017-03-30T10:37:47Z</time>
      </trkpt>
      <trkpt lat="43.3698" lon="5.92696">
        <ele>444</ele>
        <time>2017-03-30T10:37:55Z</time>
      </trkpt>
      <trkpt lat="43.36978" lon="5.92683">
        <ele>443</ele>
        <time>2017-03-30T10:38:08Z</time>
      </trkpt>
      <trkpt lat="43.36972" lon="5.92672">
        <ele>443</ele>
        <time>2017-03-30T10:38:22Z</time>
      </trkpt>
      <trkpt lat="43.36966" lon="5.92663">
        <ele>443</ele>
        <time>2017-03-30T10:38:36Z</time>
      </trkpt>
      <trkpt lat="43.36967" lon="5.92651">
        <ele>442</ele>
        <time>2017-03-30T10:38:43Z</time>
      </trkpt>
      <trkpt lat="43.36966" lon="5.92638">
        <ele>442</ele>
        <time>2017-03-30T10:38:53Z</time>
      </trkpt>
      <trkpt lat="43.36967" lon="5.92625">
        <ele>442</ele>
        <time>2017-03-30T10:39:04Z</time>
      </trkpt>
      <trkpt lat="43.36972" lon="5.92612">
        <ele>442</ele>
        <time>2017-03-30T10:39:15Z</time>
      </trkpt>
      <trkpt lat="43.36969" lon="5.926">
        <ele>442</ele>
        <time>2017-03-30T10:39:24Z</time>
      </trkpt>
      <trkpt lat="43.36966" lon="5.92588">
        <ele>442</ele>
        <time>2017-03-30T10:39:34Z</time>
      </trkpt>
      <trkpt lat="43.36971" lon="5.92575">
        <ele>441</ele>
        <time>2017-03-30T10:39:42Z</time>
      </trkpt>
      <trkpt lat="43.36976" lon="5.92564">
        <ele>441</ele>
        <time>2017-03-30T10:39:53Z</time>
      </trkpt>
      <trkpt lat="43.36983" lon="5.92556">
        <ele>441</ele>
        <time>2017-03-30T10:40:03Z</time>
      </trkpt>
      <trkpt lat="43.3699" lon="5.92547">
        <ele>441</ele>
        <time>2017-03-30T10:40:13Z</time>
      </trkpt>
      <trkpt lat="43.36993" lon="5.92534">
        <ele>441</ele>
        <time>2017-03-30T10:40:23Z</time>
      </trkpt>
      <trkpt lat="43.3699" lon="5.92522">
        <ele>441</ele>
        <time>2017-03-30T10:40:30Z</time>
      </trkpt>
      <trkpt lat="43.36985" lon="5.9251">
        <ele>441</ele>
        <time>2017-03-30T10:40:40Z</time>
      </trkpt>
      <trkpt lat="43.36979" lon="5.92501">
        <ele>441</ele>
        <time>2017-03-30T10:40:50Z</time>
      </trkpt>
      <trkpt lat="43.36971" lon="5.92495">
        <ele>441</ele>
        <time>2017-03-30T10:41:00Z</time>
      </trkpt>
      <trkpt lat="43.36961" lon="5.92491">
        <ele>440</ele>
        <time>2017-03-30T10:41:08Z</time>
      </trkpt>
      <trkpt lat="43.36951" lon="5.9249">
        <ele>440</ele>
        <time>2017-03-30T10:41:23Z</time>
      </trkpt>
      <trkpt lat="43.36942" lon="5.92485">
        <ele>439</ele>
        <time>2017-03-30T10:41:35Z</time>
      </trkpt>
      <trkpt lat="43.36933" lon="5.92482">
        <ele>439</ele>
        <time>2017-03-30T10:41:41Z</time>
      </trkpt>
      <trkpt lat="43.36923" lon="5.92482">
        <ele>438</ele>
        <time>2017-03-30T10:42:11Z</time>
      </trkpt>
      <trkpt lat="43.36916" lon="5.92474">
        <ele>437</ele>
        <time>2017-03-30T10:43:56Z</time>
      </trkpt>
      <trkpt lat="43.36909" lon="5.92465">
        <ele>436</ele>
        <time>2017-03-30T10:44:04Z</time>
      </trkpt>
      <trkpt lat="43.36903" lon="5.92454">
        <ele>436</ele>
        <time>2017-03-30T10:44:12Z</time>
      </trkpt>
      <trkpt lat="43.36897" lon="5.92444">
        <ele>436</ele>
        <time>2017-03-30T10:44:21Z</time>
      </trkpt>
      <trkpt lat="43.36893" lon="5.92432">
        <ele>435</ele>
        <time>2017-03-30T10:44:34Z</time>
      </trkpt>
      <trkpt lat="43.36884" lon="5.92428">
        <ele>435</ele>
        <time>2017-03-30T10:44:46Z</time>
      </trkpt>
      <trkpt lat="43.36875" lon="5.92429">
        <ele>435</ele>
        <time>2017-03-30T10:44:57Z</time>
      </trkpt>
      <trkpt lat="43.36865" lon="5.92428">
        <ele>434</ele>
        <time>2017-03-30T10:45:07Z</time>
      </trkpt>
      <trkpt lat="43.36856" lon="5.92427">
        <ele>434</ele>
        <time>2017-03-30T10:45:25Z</time>
      </trkpt>
      <trkpt lat="43.36847" lon="5.92423">
        <ele>433</ele>
        <time>2017-03-30T10:45:33Z</time>
      </trkpt>
      <trkpt lat="43.36838" lon="5.92423">
        <ele>432</ele>
        <time>2017-03-30T10:45:58Z</time>
      </trkpt>
      <trkpt lat="43.36828" lon="5.92425">
        <ele>432</ele>
        <time>2017-03-30T10:46:27Z</time>
      </trkpt>
      <trkpt lat="43.3682" lon="5.92429">
        <ele>431</ele>
        <time>2017-03-30T10:46:37Z</time>
      </trkpt>
      <trkpt lat="43.3681" lon="5.9243">
        <ele>431</ele>
        <time>2017-03-30T10:46:44Z</time>
      </trkpt>
      <trkpt lat="43.36801" lon="5.92431">
        <ele>431</ele>
        <time>2017-03-30T10:46:54Z</time>
      </trkpt>
      <trkpt lat="43.36791" lon="5.92428">
        <ele>431</ele>
        <time>2017-03-30T10:47:05Z</time>
      </trkpt>
      <trkpt lat="43.36782" lon="5.92425">
        <ele>431</ele>
        <time>2017-03-30T10:47:18Z</time>
      </trkpt>
      <trkpt lat="43.36773" lon="5.9242">
        <ele>430</ele>
        <time>2017-03-30T10:47:27Z</time>
      </trkpt>
      <trkpt lat="43.36765" lon="5.92416">
        <ele>430</ele>
        <time>2017-03-30T10:47:39Z</time>
      </trkpt>
      <trkpt lat="43.36766" lon="5.92404">
        <ele>430</ele>
        <time>2017-03-30T10:47:53Z</time>
      </trkpt>
      <trkpt lat="43.36771" lon="5.92394">
        <ele>430</ele>
        <time>2017-03-30T10:48:09Z</time>
      </trkpt>
      <trkpt lat="43.36779" lon="5.92386">
        <ele>430</ele>
        <time>2017-03-30T10:48:24Z</time>
      </trkpt>
      <trkpt lat="43.36787" lon="5.92381">
        <ele>430</ele>
        <time>2017-03-30T10:48:35Z</time>
      </trkpt>
      <trkpt lat="43.36795" lon="5.92373">
        <ele>429</ele>
        <time>2017-03-30T10:48:46Z</time>
      </trkpt>
      <trkpt lat="43.36786" lon="5.92375">
        <ele>428</ele>
        <time>2017-03-30T10:49:24Z</time>
      </trkpt>
      <trkpt lat="43.36777" lon="5.92376">
        <ele>428</ele>
        <time>2017-03-30T10:49:36Z</time>
      </trkpt>
      <trkpt lat="43.36768" lon="5.92375">
        <ele>428</ele>
        <time>2017-03-30T10:49:43Z</time>
      </trkpt>
      <trkpt lat="43.36759" lon="5.92377">
        <ele>427</ele>
        <time>2017-03-30T10:50:03Z</time>
      </trkpt>
      <trkpt lat="43.3675" lon="5.92374">
        <ele>425</ele>
        <time>2017-03-30T10:50:20Z</time>
      </trkpt>
      <trkpt lat="43.36748" lon="5.92362">
        <ele>422</ele>
        <time>2017-03-30T10:51:26Z</time>
      </trkpt>
      <trkpt lat="43.36757" lon="5.92357">
        <ele>420</ele>
        <time>2017-03-30T10:51:56Z</time>
      </trkpt>
      <trkpt lat="43.36766" lon="5.92354">
        <ele>418</ele>
        <time>2017-03-30T10:52:09Z</time>
      </trkpt>
      <trkpt lat="43.36774" lon="5.92348">
        <ele>416</ele>
        <time>2017-03-30T10:52:37Z</time>
      </trkpt>
      <trkpt lat="43.36767" lon="5.9234">
        <ele>413</ele>
        <time>2017-03-30T10:53:08Z</time>
      </trkpt>
      <trkpt lat="43.36757" lon="5.92341">
        <ele>411</ele>
        <time>2017-03-30T10:53:26Z</time>
      </trkpt>
      <trkpt lat="43.36746" lon="5.92341">
        <ele>410</ele>
        <time>2017-03-30T10:53:33Z</time>
      </trkpt>
      <trkpt lat="43.36737" lon="5.92346">
        <ele>408</ele>
        <time>2017-03-30T10:54:01Z</time>
      </trkpt>
      <trkpt lat="43.36731" lon="5.92355">
        <ele>402</ele>
        <time>2017-03-30T10:56:36Z</time>
      </trkpt>
      <trkpt lat="43.36727" lon="5.92344">
        <ele>401</ele>
        <time>2017-03-30T10:56:55Z</time>
      </trkpt>
      <trkpt lat="43.36719" lon="5.9235">
        <ele>400</ele>
        <time>2017-03-30T10:57:27Z</time>
      </trkpt>
      <trkpt lat="43.3671" lon="5.92353">
        <ele>399</ele>
        <time>2017-03-30T10:57:53Z</time>
      </trkpt>
      <trkpt lat="43.36703" lon="5.92361">
        <ele>388</ele>
        <time>2017-03-30T11:02:55Z</time>
      </trkpt>
      <trkpt lat="43.36712" lon="5.92354">
        <ele>376</ele>
        <time>2017-03-30T11:53:55Z</time>
      </trkpt>
      <trkpt lat="43.36721" lon="5.92356">
        <ele>376</ele>
        <time>2017-03-30T11:54:07Z</time>
      </trkpt>
      <trkpt lat="43.36731" lon="5.92356">
        <ele>376</ele>
        <time>2017-03-30T11:54:25Z</time>
      </trkpt>
      <trkpt lat="43.3674" lon="5.92356">
        <ele>376</ele>
        <time>2017-03-30T11:54:42Z</time>
      </trkpt>
      <trkpt lat="43.36749" lon="5.9235">
        <ele>376</ele>
        <time>2017-03-30T11:54:51Z</time>
      </trkpt>
      <trkpt lat="43.36746" lon="5.92338">
        <ele>375</ele>
        <time>2017-03-30T11:59:03Z</time>
      </trkpt>
      <trkpt lat="43.36752" lon="5.92329">
        <ele>375</ele>
        <time>2017-03-30T12:01:46Z</time>
      </trkpt>
      <trkpt lat="43.36743" lon="5.92326">
        <ele>375</ele>
        <time>2017-03-30T12:04:15Z</time>
      </trkpt>
      <trkpt lat="43.36749" lon="5.92336">
        <ele>376</ele>
        <time>2017-03-30T12:08:49Z</time>
      </trkpt>
      <trkpt lat="43.36739" lon="5.92341">
        <ele>376</ele>
        <time>2017-03-30T12:09:34Z</time>
      </trkpt>
      <trkpt lat="43.36729" lon="5.9234">
        <ele>376</ele>
        <time>2017-03-30T12:09:59Z</time>
      </trkpt>
      <trkpt lat="43.36726" lon="5.92329">
        <ele>376</ele>
        <time>2017-03-30T12:11:03Z</time>
      </trkpt>
      <trkpt lat="43.36734" lon="5.92322">
        <ele>376</ele>
        <time>2017-03-30T12:11:21Z</time>
      </trkpt>
      <trkpt lat="43.36744" lon="5.92319">
        <ele>376</ele>
        <time>2017-03-30T12:11:46Z</time>
      </trkpt>
      <trkpt lat="43.36751" lon="5.92312">
        <ele>373</ele>
        <time>2017-03-30T12:15:57Z</time>
      </trkpt>
      <trkpt lat="43.36759" lon="5.92306">
        <ele>373</ele>
        <time>2017-03-30T12:16:15Z</time>
      </trkpt>
      <trkpt lat="43.36767" lon="5.923">
        <ele>373</ele>
        <time>2017-03-30T12:16:24Z</time>
      </trkpt>
      <trkpt lat="43.36776" lon="5.92295">
        <ele>373</ele>
        <time>2017-03-30T12:16:45Z</time>
      </trkpt>
      <trkpt lat="43.36782" lon="5.92286">
        <ele>373</ele>
        <time>2017-03-30T12:17:08Z</time>
      </trkpt>
      <trkpt lat="43.36791" lon="5.92277">
        <ele>372</ele>
        <time>2017-03-30T12:17:22Z</time>
      </trkpt>
      <trkpt lat="43.368" lon="5.92273">
        <ele>372</ele>
        <time>2017-03-30T12:17:32Z</time>
      </trkpt>
      <trkpt lat="43.36808" lon="5.92266">
        <ele>369</ele>
        <time>2017-03-30T12:18:04Z</time>
      </trkpt>
      <trkpt lat="43.36818" lon="5.92267">
        <ele>368</ele>
        <time>2017-03-30T12:18:26Z</time>
      </trkpt>
      <trkpt lat="43.36826" lon="5.92266">
        <ele>367</ele>
        <time>2017-03-30T12:18:58Z</time>
      </trkpt>
      <trkpt lat="43.36828" lon="5.92253">
        <ele>368</ele>
        <time>2017-03-30T12:19:15Z</time>
      </trkpt>
      <trkpt lat="43.36838" lon="5.92248">
        <ele>367</ele>
        <time>2017-03-30T12:19:52Z</time>
      </trkpt>
      <trkpt lat="43.36846" lon="5.92239">
        <ele>366</ele>
        <time>2017-03-30T12:20:06Z</time>
      </trkpt>
      <trkpt lat="43.36855" lon="5.92235">
        <ele>366</ele>
        <time>2017-03-30T12:20:31Z</time>
      </trkpt>
      <trkpt lat="43.36862" lon="5.92229">
        <ele>366</ele>
        <time>2017-03-30T12:20:54Z</time>
      </trkpt>
      <trkpt lat="43.36872" lon="5.9223">
        <ele>366</ele>
        <time>2017-03-30T12:21:10Z</time>
      </trkpt>
      <trkpt lat="43.36882" lon="5.92232">
        <ele>366</ele>
        <time>2017-03-30T12:21:37Z</time>
      </trkpt>
      <trkpt lat="43.36889" lon="5.92223">
        <ele>366</ele>
        <time>2017-03-30T12:21:50Z</time>
      </trkpt>
      <trkpt lat="43.36899" lon="5.92222">
        <ele>365</ele>
        <time>2017-03-30T12:22:12Z</time>
      </trkpt>
      <trkpt lat="43.36908" lon="5.92218">
        <ele>364</ele>
        <time>2017-03-30T12:22:29Z</time>
      </trkpt>
      <trkpt lat="43.36909" lon="5.92205">
        <ele>363</ele>
        <time>2017-03-30T12:23:08Z</time>
      </trkpt>
      <trkpt lat="43.36913" lon="5.92192">
        <ele>363</ele>
        <time>2017-03-30T12:23:20Z</time>
      </trkpt>
      <trkpt lat="43.36918" lon="5.92181">
        <ele>362</ele>
        <time>2017-03-30T12:24:34Z</time>
      </trkpt>
      <trkpt lat="43.36926" lon="5.92175">
        <ele>359</ele>
        <time>2017-03-30T12:26:36Z</time>
      </trkpt>
      <trkpt lat="43.36925" lon="5.92188">
        <ele>359</ele>
        <time>2017-03-30T12:26:47Z</time>
      </trkpt>
      <trkpt lat="43.3693" lon="5.92178">
        <ele>358</ele>
        <time>2017-03-30T12:27:55Z</time>
      </trkpt>
      <trkpt lat="43.36937" lon="5.92169">
        <ele>359</ele>
        <time>2017-03-30T12:28:56Z</time>
      </trkpt>
      <trkpt lat="43.36943" lon="5.92179">
        <ele>359</ele>
        <time>2017-03-30T12:29:35Z</time>
      </trkpt>
      <trkpt lat="43.36945" lon="5.92167">
        <ele>361</ele>
        <time>2017-03-30T12:32:02Z</time>
      </trkpt>
      <trkpt lat="43.36953" lon="5.92159">
        <ele>361</ele>
        <time>2017-03-30T12:32:20Z</time>
      </trkpt>
      <trkpt lat="43.36961" lon="5.92152">
        <ele>361</ele>
        <time>2017-03-30T12:32:31Z</time>
      </trkpt>
      <trkpt lat="43.36969" lon="5.92145">
        <ele>361</ele>
        <time>2017-03-30T12:32:40Z</time>
      </trkpt>
      <trkpt lat="43.36974" lon="5.92135">
        <ele>361</ele>
        <time>2017-03-30T12:33:02Z</time>
      </trkpt>
      <trkpt lat="43.36981" lon="5.92124">
        <ele>361</ele>
        <time>2017-03-30T12:33:48Z</time>
      </trkpt>
      <trkpt lat="43.36989" lon="5.92118">
        <ele>361</ele>
        <time>2017-03-30T12:34:08Z</time>
      </trkpt>
      <trkpt lat="43.36994" lon="5.92106">
        <ele>361</ele>
        <time>2017-03-30T12:34:39Z</time>
      </trkpt>
      <trkpt lat="43.37" lon="5.92097">
        <ele>361</ele>
        <time>2017-03-30T12:34:56Z</time>
      </trkpt>
      <trkpt lat="43.37006" lon="5.92088">
        <ele>360</ele>
        <time>2017-03-30T12:35:12Z</time>
      </trkpt>
      <trkpt lat="43.37014" lon="5.92082">
        <ele>360</ele>
        <time>2017-03-30T12:35:21Z</time>
      </trkpt>
      <trkpt lat="43.37022" lon="5.92075">
        <ele>360</ele>
        <time>2017-03-30T12:35:31Z</time>
      </trkpt>
      <trkpt lat="43.3703" lon="5.92068">
        <ele>360</ele>
        <time>2017-03-30T12:35:47Z</time>
      </trkpt>
      <trkpt lat="43.37038" lon="5.92062">
        <ele>360</ele>
        <time>2017-03-30T12:36:07Z</time>
      </trkpt>
      <trkpt lat="43.37044" lon="5.92053">
        <ele>359</ele>
        <time>2017-03-30T12:36:41Z</time>
      </trkpt>
      <trkpt lat="43.37052" lon="5.92046">
        <ele>359</ele>
        <time>2017-03-30T12:36:59Z</time>
      </trkpt>
      <trkpt lat="43.37061" lon="5.9204">
        <ele>359</ele>
        <time>2017-03-30T12:37:24Z</time>
      </trkpt>
      <trkpt lat="43.37067" lon="5.92029">
        <ele>359</ele>
        <time>2017-03-30T12:38:09Z</time>
      </trkpt>
      <trkpt lat="43.37074" lon="5.92021">
        <ele>359</ele>
        <time>2017-03-30T12:38:24Z</time>
      </trkpt>
      <trkpt lat="43.37081" lon="5.92012">
        <ele>359</ele>
        <time>2017-03-30T12:38:34Z</time>
      </trkpt>
      <trkpt lat="43.37087" lon="5.92003">
        <ele>359</ele>
        <time>2017-03-30T12:38:45Z</time>
      </trkpt>
      <trkpt lat="43.37094" lon="5.91995">
        <ele>359</ele>
        <time>2017-03-30T12:39:08Z</time>
      </trkpt>
      <trkpt lat="43.37102" lon="5.91989">
        <ele>358</ele>
        <time>2017-03-30T12:40:12Z</time>
      </trkpt>
      <trkpt lat="43.37108" lon="5.9198">
        <ele>358</ele>
        <time>2017-03-30T12:40:58Z</time>
      </trkpt>
      <trkpt lat="43.37111" lon="5.91968">
        <ele>357</ele>
        <time>2017-03-30T12:42:41Z</time>
      </trkpt>
      <trkpt lat="43.37119" lon="5.91961">
        <ele>356</ele>
        <time>2017-03-30T12:42:56Z</time>
      </trkpt>
      <trkpt lat="43.37128" lon="5.91958">
        <ele>356</ele>
        <time>2017-03-30T12:43:06Z</time>
      </trkpt>
      <trkpt lat="43.37135" lon="5.9195">
        <ele>356</ele>
        <time>2017-03-30T12:43:15Z</time>
      </trkpt>
      <trkpt lat="43.37145" lon="5.91945">
        <ele>356</ele>
        <time>2017-03-30T12:43:23Z</time>
      </trkpt>
      <trkpt lat="43.37152" lon="5.91937">
        <ele>355</ele>
        <time>2017-03-30T12:43:39Z</time>
      </trkpt>
      <trkpt lat="43.3716" lon="5.91931">
        <ele>355</ele>
        <time>2017-03-30T12:43:52Z</time>
      </trkpt>
      <trkpt lat="43.37168" lon="5.91924">
        <ele>355</ele>
        <time>2017-03-30T12:44:31Z</time>
      </trkpt>
      <trkpt lat="43.37177" lon="5.91922">
        <ele>355</ele>
        <time>2017-03-30T12:45:25Z</time>
      </trkpt>
      <trkpt lat="43.37182" lon="5.91912">
        <ele>355</ele>
        <time>2017-03-30T12:47:03Z</time>
      </trkpt>
      <trkpt lat="43.37183" lon="5.91924">
        <ele>354</ele>
        <time>2017-03-30T12:48:37Z</time>
      </trkpt>
      <trkpt lat="43.37188" lon="5.91913">
        <ele>354</ele>
        <time>2017-03-30T12:49:09Z</time>
      </trkpt>
      <trkpt lat="43.37198" lon="5.91908">
        <ele>354</ele>
        <time>2017-03-30T12:53:33Z</time>
      </trkpt>
      <trkpt lat="43.37206" lon="5.91902">
        <ele>355</ele>
        <time>2017-03-30T12:53:58Z</time>
      </trkpt>
      <trkpt lat="43.37206" lon="5.91916">
        <ele>354</ele>
        <time>2017-03-30T12:57:11Z</time>
      </trkpt>
      <trkpt lat="43.37215" lon="5.91911">
        <ele>353</ele>
        <time>2017-03-30T12:57:44Z</time>
      </trkpt>
      <trkpt lat="43.37223" lon="5.91907">
        <ele>353</ele>
        <time>2017-03-30T12:57:53Z</time>
      </trkpt>
      <trkpt lat="43.37233" lon="5.91902">
        <ele>353</ele>
        <time>2017-03-30T12:58:02Z</time>
      </trkpt>
      <trkpt lat="43.37241" lon="5.91902">
        <ele>354</ele>
        <time>2017-03-30T12:59:26Z</time>
      </trkpt>
      <trkpt lat="43.37251" lon="5.91903">
        <ele>354</ele>
        <time>2017-03-30T13:00:33Z</time>
      </trkpt>
      <trkpt lat="43.3726" lon="5.919">
        <ele>354</ele>
        <time>2017-03-30T13:00:59Z</time>
      </trkpt>
      <trkpt lat="43.37269" lon="5.91895">
        <ele>354</ele>
        <time>2017-03-30T13:02:09Z</time>
      </trkpt>
      <trkpt lat="43.37277" lon="5.91889">
        <ele>354</ele>
        <time>2017-03-30T13:03:55Z</time>
      </trkpt>
      <trkpt lat="43.37283" lon="5.91899">
        <ele>354</ele>
        <time>2017-03-30T13:06:00Z</time>
      </trkpt>
      <trkpt lat="43.37291" lon="5.91894">
        <ele>354</ele>
        <time>2017-03-30T13:06:18Z</time>
      </trkpt>
      <trkpt lat="43.37299" lon="5.91886">
        <ele>355</ele>
        <time>2017-03-30T13:06:32Z</time>
      </trkpt>
      <trkpt lat="43.37309" lon="5.9188">
        <ele>355</ele>
        <time>2017-03-30T13:06:50Z</time>
      </trkpt>
      <trkpt lat="43.37315" lon="5.9187">
        <ele>355</ele>
        <time>2017-03-30T13:06:58Z</time>
      </trkpt>
      <trkpt lat="43.37321" lon="5.91859">
        <ele>355</ele>
        <time>2017-03-30T13:07:12Z</time>
      </trkpt>
      <trkpt lat="43.3733" lon="5.91855">
        <ele>355</ele>
        <time>2017-03-30T13:07:23Z</time>
      </trkpt>
      <trkpt lat="43.37339" lon="5.91852">
        <ele>355</ele>
        <time>2017-03-30T13:07:43Z</time>
      </trkpt>
      <trkpt lat="43.3734" lon="5.9184">
        <ele>355</ele>
        <time>2017-03-30T13:08:06Z</time>
      </trkpt>
      <trkpt lat="43.37345" lon="5.91829">
        <ele>355</ele>
        <time>2017-03-30T13:08:49Z</time>
      </trkpt>
      <trkpt lat="43.3735" lon="5.91819">
        <ele>355</ele>
        <time>2017-03-30T13:10:41Z</time>
      </trkpt>
      <trkpt lat="43.37352" lon="5.91806">
        <ele>355</ele>
        <time>2017-03-30T13:10:48Z</time>
      </trkpt>
      <trkpt lat="43.37353" lon="5.91794">
        <ele>355</ele>
        <time>2017-03-30T13:11:12Z</time>
      </trkpt>
      <trkpt lat="43.37351" lon="5.91781">
        <ele>355</ele>
        <time>2017-03-30T13:11:23Z</time>
      </trkpt>
      <trkpt lat="43.37351" lon="5.91768">
        <ele>355</ele>
        <time>2017-03-30T13:11:46Z</time>
      </trkpt>
      <trkpt lat="43.37354" lon="5.91755">
        <ele>355</ele>
        <time>2017-03-30T13:12:05Z</time>
      </trkpt>
      <trkpt lat="43.37358" lon="5.91744">
        <ele>355</ele>
        <time>2017-03-30T13:12:24Z</time>
      </trkpt>
      <trkpt lat="43.37361" lon="5.91731">
        <ele>355</ele>
        <time>2017-03-30T13:12:49Z</time>
      </trkpt>
      <trkpt lat="43.37363" lon="5.91717">
        <ele>355</ele>
        <time>2017-03-30T13:13:10Z</time>
      </trkpt>
      <trkpt lat="43.37364" lon="5.91704">
        <ele>355</ele>
        <time>2017-03-30T13:13:24Z</time>
      </trkpt>
      <trkpt lat="43.37367" lon="5.91691">
        <ele>355</ele>
        <time>2017-03-30T13:13:35Z</time>
      </trkpt>
      <trkpt lat="43.37371" lon="5.91679">
        <ele>355</ele>
        <time>2017-03-30T13:13:46Z</time>
      </trkpt>
      <trkpt lat="43.37376" lon="5.91667">
        <ele>356</ele>
        <time>2017-03-30T13:13:59Z</time>
      </trkpt>
      <trkpt lat="43.3738" lon="5.91655">
        <ele>356</ele>
        <time>2017-03-30T13:14:08Z</time>
      </trkpt>
      <trkpt lat="43.37384" lon="5.91644">
        <ele>356</ele>
        <time>2017-03-30T13:14:21Z</time>
      </trkpt>
      <trkpt lat="43.37389" lon="5.91632">
        <ele>356</ele>
        <time>2017-03-30T13:14:35Z</time>
      </trkpt>
      <trkpt lat="43.37394" lon="5.9162">
        <ele>356</ele>
        <time>2017-03-30T13:14:46Z</time>
      </trkpt>
      <trkpt lat="43.37401" lon="5.91609">
        <ele>356</ele>
        <time>2017-03-30T13:14:55Z</time>
      </trkpt>
      <trkpt lat="43.37403" lon="5.91597">
        <ele>356</ele>
        <time>2017-03-30T13:15:08Z</time>
      </trkpt>
      <trkpt lat="43.3741" lon="5.91588">
        <ele>356</ele>
        <time>2017-03-30T13:15:25Z</time>
      </trkpt>
      <trkpt lat="43.37413" lon="5.91576">
        <ele>356</ele>
        <time>2017-03-30T13:15:40Z</time>
      </trkpt>
      <trkpt lat="43.37421" lon="5.9157">
        <ele>356</ele>
        <time>2017-03-30T13:16:06Z</time>
      </trkpt>
      <trkpt lat="43.37424" lon="5.91558">
        <ele>356</ele>
        <time>2017-03-30T13:16:38Z</time>
      </trkpt>
      <trkpt lat="43.37426" lon="5.91544">
        <ele>356</ele>
        <time>2017-03-30T13:16:56Z</time>
      </trkpt>
      <trkpt lat="43.37428" lon="5.91532">
        <ele>356</ele>
        <time>2017-03-30T13:17:13Z</time>
      </trkpt>
      <trkpt lat="43.37429" lon="5.91519">
        <ele>356</ele>
        <time>2017-03-30T13:17:33Z</time>
      </trkpt>
      <trkpt lat="43.3743" lon="5.91506">
        <ele>356</ele>
        <time>2017-03-30T13:17:44Z</time>
      </trkpt>
      <trkpt lat="43.37435" lon="5.91495">
        <ele>356</ele>
        <time>2017-03-30T13:17:57Z</time>
      </trkpt>
      <trkpt lat="43.37442" lon="5.91487">
        <ele>356</ele>
        <time>2017-03-30T13:18:18Z</time>
      </trkpt>
      <trkpt lat="43.37447" lon="5.91476">
        <ele>356</ele>
        <time>2017-03-30T13:19:06Z</time>
      </trkpt>
      <trkpt lat="43.37453" lon="5.91467">
        <ele>356</ele>
        <time>2017-03-30T13:19:54Z</time>
      </trkpt>
      <trkpt lat="43.37462" lon="5.91461">
        <ele>355</ele>
        <time>2017-03-30T13:20:48Z</time>
      </trkpt>
      <trkpt lat="43.37471" lon="5.91456">
        <ele>355</ele>
        <time>2017-03-30T13:21:27Z</time>
      </trkpt>
      <trkpt lat="43.3748" lon="5.91459">
        <ele>355</ele>
        <time>2017-03-30T13:21:39Z</time>
      </trkpt>
      <trkpt lat="43.37489" lon="5.91463">
        <ele>355</ele>
        <time>2017-03-30T13:21:52Z</time>
      </trkpt>
      <trkpt lat="43.37498" lon="5.91466">
        <ele>354</ele>
        <time>2017-03-30T13:22:44Z</time>
      </trkpt>
      <trkpt lat="43.375" lon="5.9148">
        <ele>353</ele>
        <time>2017-03-30T13:24:17Z</time>
      </trkpt>
      <trkpt lat="43.3751" lon="5.91482">
        <ele>352</ele>
        <time>2017-03-30T13:25:10Z</time>
      </trkpt>
      <trkpt lat="43.37518" lon="5.91489">
        <ele>352</ele>
        <time>2017-03-30T13:25:51Z</time>
      </trkpt>
      <trkpt lat="43.37527" lon="5.91491">
        <ele>352</ele>
        <time>2017-03-30T13:26:06Z</time>
      </trkpt>
      <trkpt lat="43.37535" lon="5.91496">
        <ele>351</ele>
        <time>2017-03-30T13:26:45Z</time>
      </trkpt>
      <trkpt lat="43.37545" lon="5.91496">
        <ele>351</ele>
        <time>2017-03-30T13:27:20Z</time>
      </trkpt>
      <trkpt lat="43.37554" lon="5.91498">
        <ele>351</ele>
        <time>2017-03-30T13:27:40Z</time>
      </trkpt>
      <trkpt lat="43.37561" lon="5.91507">
        <ele>350</ele>
        <time>2017-03-30T13:28:18Z</time>
      </trkpt>
      <trkpt lat="43.3757" lon="5.91506">
        <ele>350</ele>
        <time>2017-03-30T13:28:40Z</time>
      </trkpt>
      <trkpt lat="43.37579" lon="5.91502">
        <ele>350</ele>
        <time>2017-03-30T13:28:58Z</time>
      </trkpt>
      <trkpt lat="43.37587" lon="5.91497">
        <ele>350</ele>
        <time>2017-03-30T13:29:41Z</time>
      </trkpt>
      <trkpt lat="43.37596" lon="5.91493">
        <ele>350</ele>
        <time>2017-03-30T13:30:55Z</time>
      </trkpt>
      <trkpt lat="43.376" lon="5.91481">
        <ele>350</ele>
        <time>2017-03-30T13:33:01Z</time>
      </trkpt>
      <trkpt lat="43.37609" lon="5.91484">
        <ele>350</ele>
        <time>2017-03-30T13:36:27Z</time>
      </trkpt>
      <trkpt lat="43.37618" lon="5.91477">
        <ele>350</ele>
        <time>2017-03-30T13:36:42Z</time>
      </trkpt>
      <trkpt lat="43.37626" lon="5.91472">
        <ele>350</ele>
        <time>2017-03-30T13:37:06Z</time>
      </trkpt>
      <trkpt lat="43.37635" lon="5.91471">
        <ele>350</ele>
        <time>2017-03-30T13:37:24Z</time>
      </trkpt>
      <trkpt lat="43.37643" lon="5.91465">
        <ele>350</ele>
        <time>2017-03-30T13:38:00Z</time>
      </trkpt>
      <trkpt lat="43.37653" lon="5.91465">
        <ele>350</ele>
        <time>2017-03-30T13:38:23Z</time>
      </trkpt>
      <trkpt lat="43.37662" lon="5.91466">
        <ele>350</ele>
        <time>2017-03-30T13:40:18Z</time>
      </trkpt>
      <trkpt lat="43.37669" lon="5.91459">
        <ele>350</ele>
        <time>2017-03-30T13:40:26Z</time>
      </trkpt>
      <trkpt lat="43.37677" lon="5.91452">
        <ele>350</ele>
        <time>2017-03-30T13:40:39Z</time>
      </trkpt>
      <trkpt lat="43.37688" lon="5.91451">
        <ele>350</ele>
        <time>2017-03-30T13:40:45Z</time>
      </trkpt>
      <trkpt lat="43.37696" lon="5.91445">
        <ele>350</ele>
        <time>2017-03-30T13:40:53Z</time>
      </trkpt>
      <trkpt lat="43.37705" lon="5.91442">
        <ele>350</ele>
        <time>2017-03-30T13:41:03Z</time>
      </trkpt>
      <trkpt lat="43.37714" lon="5.91437">
        <ele>350</ele>
        <time>2017-03-30T13:41:14Z</time>
      </trkpt>
      <trkpt lat="43.37722" lon="5.91432">
        <ele>350</ele>
        <time>2017-03-30T13:41:25Z</time>
      </trkpt>
      <trkpt lat="43.37731" lon="5.91436">
        <ele>350</ele>
        <time>2017-03-30T13:41:34Z</time>
      </trkpt>
      <trkpt lat="43.37741" lon="5.91438">
        <ele>349</ele>
        <time>2017-03-30T13:41:52Z</time>
      </trkpt>
      <trkpt lat="43.37748" lon="5.91446">
        <ele>349</ele>
        <time>2017-03-30T13:42:33Z</time>
      </trkpt>
      <trkpt lat="43.37755" lon="5.91453">
        <ele>349</ele>
        <time>2017-03-30T13:42:45Z</time>
      </trkpt>
      <trkpt lat="43.37763" lon="5.9146">
        <ele>348</ele>
        <time>2017-03-30T13:43:17Z</time>
      </trkpt>
      <trkpt lat="43.37771" lon="5.91467">
        <ele>348</ele>
        <time>2017-03-30T13:43:27Z</time>
      </trkpt>
      <trkpt lat="43.37777" lon="5.91476">
        <ele>348</ele>
        <time>2017-03-30T13:43:38Z</time>
      </trkpt>
      <trkpt lat="43.3778" lon="5.91488">
        <ele>348</ele>
        <time>2017-03-30T13:43:52Z</time>
      </trkpt>
      <trkpt lat="43.37786" lon="5.91498">
        <ele>348</ele>
        <time>2017-03-30T13:44:38Z</time>
      </trkpt>
      <trkpt lat="43.37791" lon="5.91509">
        <ele>348</ele>
        <time>2017-03-30T13:44:49Z</time>
      </trkpt>
      <trkpt lat="43.37797" lon="5.9152">
        <ele>348</ele>
        <time>2017-03-30T13:44:57Z</time>
      </trkpt>
      <trkpt lat="43.37803" lon="5.9153">
        <ele>348</ele>
        <time>2017-03-30T13:45:05Z</time>
      </trkpt>
      <trkpt lat="43.37809" lon="5.91541">
        <ele>348</ele>
        <time>2017-03-30T13:45:12Z</time>
      </trkpt>
      <trkpt lat="43.37814" lon="5.91552">
        <ele>348</ele>
        <time>2017-03-30T13:45:21Z</time>
      </trkpt>
      <trkpt lat="43.3782" lon="5.91562">
        <ele>348</ele>
        <time>2017-03-30T13:45:30Z</time>
      </trkpt>
      <trkpt lat="43.37827" lon="5.91572">
        <ele>348</ele>
        <time>2017-03-30T13:45:39Z</time>
      </trkpt>
      <trkpt lat="43.37833" lon="5.91582">
        <ele>348</ele>
        <time>2017-03-30T13:45:48Z</time>
      </trkpt>
      <trkpt lat="43.37839" lon="5.91593">
        <ele>348</ele>
        <time>2017-03-30T13:45:56Z</time>
      </trkpt>
      <trkpt lat="43.37843" lon="5.91606">
        <ele>348</ele>
        <time>2017-03-30T13:46:02Z</time>
      </trkpt>
      <trkpt lat="43.37846" lon="5.91618">
        <ele>348</ele>
        <time>2017-03-30T13:46:13Z</time>
      </trkpt>
      <trkpt lat="43.37852" lon="5.91628">
        <ele>348</ele>
        <time>2017-03-30T13:46:20Z</time>
      </trkpt>
      <trkpt lat="43.37861" lon="5.91635">
        <ele>348</ele>
        <time>2017-03-30T13:46:28Z</time>
      </trkpt>
      <trkpt lat="43.37865" lon="5.91648">
        <ele>348</ele>
        <time>2017-03-30T13:46:38Z</time>
      </trkpt>
      <trkpt lat="43.37868" lon="5.9166">
        <ele>347</ele>
        <time>2017-03-30T13:46:47Z</time>
      </trkpt>
      <trkpt lat="43.37872" lon="5.91672">
        <ele>347</ele>
        <time>2017-03-30T13:47:12Z</time>
      </trkpt>
      <trkpt lat="43.37876" lon="5.91683">
        <ele>347</ele>
        <time>2017-03-30T13:47:21Z</time>
      </trkpt>
      <trkpt lat="43.37882" lon="5.91694">
        <ele>347</ele>
        <time>2017-03-30T13:47:27Z</time>
      </trkpt>
      <trkpt lat="43.37889" lon="5.91704">
        <ele>347</ele>
        <time>2017-03-30T13:47:39Z</time>
      </trkpt>
      <trkpt lat="43.37896" lon="5.91713">
        <ele>347</ele>
        <time>2017-03-30T13:47:50Z</time>
      </trkpt>
      <trkpt lat="43.37902" lon="5.91723">
        <ele>346</ele>
        <time>2017-03-30T13:48:04Z</time>
      </trkpt>
      <trkpt lat="43.37908" lon="5.91733">
        <ele>346</ele>
        <time>2017-03-30T13:48:10Z</time>
      </trkpt>
      <trkpt lat="43.37914" lon="5.91743">
        <ele>346</ele>
        <time>2017-03-30T13:48:17Z</time>
      </trkpt>
      <trkpt lat="43.3792" lon="5.91754">
        <ele>346</ele>
        <time>2017-03-30T13:48:28Z</time>
      </trkpt>
      <trkpt lat="43.37923" lon="5.91767">
        <ele>346</ele>
        <time>2017-03-30T13:48:37Z</time>
      </trkpt>
      <trkpt lat="43.37929" lon="5.91778">
        <ele>346</ele>
        <time>2017-03-30T13:48:47Z</time>
      </trkpt>
      <trkpt lat="43.37934" lon="5.91789">
        <ele>346</ele>
        <time>2017-03-30T13:48:56Z</time>
      </trkpt>
      <trkpt lat="43.3794" lon="5.91798">
        <ele>346</ele>
        <time>2017-03-30T13:49:05Z</time>
      </trkpt>
      <trkpt lat="43.37945" lon="5.91809">
        <ele>346</ele>
        <time>2017-03-30T13:49:14Z</time>
      </trkpt>
      <trkpt lat="43.37949" lon="5.91821">
        <ele>346</ele>
        <time>2017-03-30T13:49:26Z</time>
      </trkpt>
      <trkpt lat="43.37954" lon="5.91832">
        <ele>346</ele>
        <time>2017-03-30T13:49:33Z</time>
      </trkpt>
      <trkpt lat="43.37957" lon="5.91843">
        <ele>346</ele>
        <time>2017-03-30T13:49:43Z</time>
      </trkpt>
      <trkpt lat="43.3796" lon="5.91856">
        <ele>346</ele>
        <time>2017-03-30T13:49:51Z</time>
      </trkpt>
      <trkpt lat="43.37966" lon="5.91866">
        <ele>346</ele>
        <time>2017-03-30T13:49:59Z</time>
      </trkpt>
      <trkpt lat="43.37972" lon="5.91876">
        <ele>346</ele>
        <time>2017-03-30T13:50:10Z</time>
      </trkpt>
      <trkpt lat="43.37977" lon="5.91889">
        <ele>346</ele>
        <time>2017-03-30T13:50:20Z</time>
      </trkpt>
      <trkpt lat="43.37978" lon="5.91902">
        <ele>346</ele>
        <time>2017-03-30T13:50:30Z</time>
      </trkpt>
      <trkpt lat="43.37981" lon="5.91914">
        <ele>346</ele>
        <time>2017-03-30T13:50:42Z</time>
      </trkpt>
      <trkpt lat="43.37982" lon="5.91928">
        <ele>346</ele>
        <time>2017-03-30T13:50:50Z</time>
      </trkpt>
      <trkpt lat="43.37986" lon="5.91939">
        <ele>346</ele>
        <time>2017-03-30T13:50:58Z</time>
      </trkpt>
      <trkpt lat="43.37993" lon="5.91948">
        <ele>346</ele>
        <time>2017-03-30T13:51:05Z</time>
      </trkpt>
      <trkpt lat="43.37995" lon="5.9196">
        <ele>346</ele>
        <time>2017-03-30T13:51:13Z</time>
      </trkpt>
      <trkpt lat="43.37999" lon="5.91972">
        <ele>346</ele>
        <time>2017-03-30T13:51:23Z</time>
      </trkpt>
      <trkpt lat="43.38001" lon="5.91984">
        <ele>346</ele>
        <time>2017-03-30T13:51:31Z</time>
      </trkpt>
      <trkpt lat="43.38004" lon="5.91997">
        <ele>346</ele>
        <time>2017-03-30T13:51:40Z</time>
      </trkpt>
      <trkpt lat="43.38006" lon="5.92009">
        <ele>346</ele>
        <time>2017-03-30T13:51:49Z</time>
      </trkpt>
      <trkpt lat="43.38012" lon="5.9202">
        <ele>346</ele>
        <time>2017-03-30T13:51:59Z</time>
      </trkpt>
      <trkpt lat="43.38021" lon="5.92022">
        <ele>345</ele>
        <time>2017-03-30T13:53:20Z</time>
      </trkpt>
      <trkpt lat="43.38011" lon="5.92019">
        <ele>345</ele>
        <time>2017-03-30T13:55:34Z</time>
      </trkpt>
      <trkpt lat="43.3802" lon="5.92023">
        <ele>346</ele>
        <time>2017-03-30T14:03:17Z</time>
      </trkpt>
      <trkpt lat="43.38023" lon="5.92035">
        <ele>346</ele>
        <time>2017-03-30T14:05:15Z</time>
      </trkpt>
      <trkpt lat="43.38028" lon="5.92045">
        <ele>346</ele>
        <time>2017-03-30T14:05:28Z</time>
      </trkpt>
      <trkpt lat="43.38034" lon="5.92055">
        <ele>346</ele>
        <time>2017-03-30T14:05:41Z</time>
      </trkpt>
      <trkpt lat="43.38041" lon="5.92064">
        <ele>346</ele>
        <time>2017-03-30T14:05:53Z</time>
      </trkpt>
      <trkpt lat="43.38047" lon="5.92073">
        <ele>346</ele>
        <time>2017-03-30T14:06:02Z</time>
      </trkpt>
      <trkpt lat="43.38052" lon="5.92084">
        <ele>346</ele>
        <time>2017-03-30T14:06:09Z</time>
      </trkpt>
      <trkpt lat="43.38057" lon="5.92095">
        <ele>346</ele>
        <time>2017-03-30T14:06:18Z</time>
      </trkpt>
      <trkpt lat="43.38061" lon="5.92106">
        <ele>346</ele>
        <time>2017-03-30T14:06:26Z</time>
      </trkpt>
      <trkpt lat="43.38065" lon="5.92118">
        <ele>346</ele>
        <time>2017-03-30T14:06:35Z</time>
      </trkpt>
      <trkpt lat="43.3807" lon="5.92129">
        <ele>346</ele>
        <time>2017-03-30T14:06:47Z</time>
      </trkpt>
      <trkpt lat="43.38079" lon="5.92126">
        <ele>346</ele>
        <time>2017-03-30T14:07:01Z</time>
      </trkpt>
      <trkpt lat="43.38089" lon="5.92131">
        <ele>346</ele>
        <time>2017-03-30T14:07:06Z</time>
      </trkpt>
      <trkpt lat="43.38098" lon="5.92133">
        <ele>346</ele>
        <time>2017-03-30T14:07:19Z</time>
      </trkpt>
      <trkpt lat="43.38108" lon="5.92134">
        <ele>346</ele>
        <time>2017-03-30T14:07:31Z</time>
      </trkpt>
      <trkpt lat="43.38117" lon="5.92134">
        <ele>346</ele>
        <time>2017-03-30T14:07:40Z</time>
      </trkpt>
      <trkpt lat="43.38127" lon="5.92133">
        <ele>345</ele>
        <time>2017-03-30T14:07:49Z</time>
      </trkpt>
      <trkpt lat="43.38136" lon="5.92131">
        <ele>345</ele>
        <time>2017-03-30T14:07:58Z</time>
      </trkpt>
      <trkpt lat="43.38145" lon="5.92128">
        <ele>345</ele>
        <time>2017-03-30T14:08:05Z</time>
      </trkpt>
      <trkpt lat="43.38154" lon="5.92126">
        <ele>345</ele>
        <time>2017-03-30T14:08:12Z</time>
      </trkpt>
      <trkpt lat="43.38164" lon="5.92126">
        <ele>345</ele>
        <time>2017-03-30T14:08:20Z</time>
      </trkpt>
      <trkpt lat="43.38174" lon="5.92127">
        <ele>345</ele>
        <time>2017-03-30T14:08:27Z</time>
      </trkpt>
      <trkpt lat="43.38183" lon="5.9213">
        <ele>345</ele>
        <time>2017-03-30T14:08:35Z</time>
      </trkpt>
      <trkpt lat="43.38192" lon="5.92131">
        <ele>345</ele>
        <time>2017-03-30T14:08:44Z</time>
      </trkpt>
      <trkpt lat="43.38202" lon="5.92134">
        <ele>345</ele>
        <time>2017-03-30T14:08:52Z</time>
      </trkpt>
      <trkpt lat="43.38211" lon="5.92137">
        <ele>345</ele>
        <time>2017-03-30T14:09:01Z</time>
      </trkpt>
      <trkpt lat="43.38221" lon="5.92138">
        <ele>345</ele>
        <time>2017-03-30T14:09:08Z</time>
      </trkpt>
      <trkpt lat="43.38231" lon="5.92138">
        <ele>345</ele>
        <time>2017-03-30T14:09:18Z</time>
      </trkpt>
      <trkpt lat="43.3824" lon="5.92139">
        <ele>345</ele>
        <time>2017-03-30T14:09:29Z</time>
      </trkpt>
      <trkpt lat="43.38249" lon="5.92141">
        <ele>345</ele>
        <time>2017-03-30T14:09:39Z</time>
      </trkpt>
      <trkpt lat="43.38258" lon="5.92142">
        <ele>345</ele>
        <time>2017-03-30T14:09:50Z</time>
      </trkpt>
      <trkpt lat="43.38268" lon="5.92144">
        <ele>345</ele>
        <time>2017-03-30T14:10:00Z</time>
      </trkpt>
      <trkpt lat="43.38278" lon="5.92141">
        <ele>345</ele>
        <time>2017-03-30T14:10:11Z</time>
      </trkpt>
      <trkpt lat="43.38287" lon="5.92138">
        <ele>345</ele>
        <time>2017-03-30T14:10:20Z</time>
      </trkpt>
      <trkpt lat="43.38296" lon="5.9214">
        <ele>345</ele>
        <time>2017-03-30T14:10:29Z</time>
      </trkpt>
      <trkpt lat="43.38306" lon="5.92142">
        <ele>345</ele>
        <time>2017-03-30T14:10:38Z</time>
      </trkpt>
      <trkpt lat="43.38315" lon="5.92147">
        <ele>345</ele>
        <time>2017-03-30T14:10:48Z</time>
      </trkpt>
      <trkpt lat="43.38325" lon="5.92152">
        <ele>345</ele>
        <time>2017-03-30T14:10:55Z</time>
      </trkpt>
      <trkpt lat="43.38334" lon="5.92155">
        <ele>345</ele>
        <time>2017-03-30T14:11:03Z</time>
      </trkpt>
      <trkpt lat="43.38342" lon="5.92161">
        <ele>345</ele>
        <time>2017-03-30T14:11:12Z</time>
      </trkpt>
      <trkpt lat="43.3835" lon="5.92167">
        <ele>345</ele>
        <time>2017-03-30T14:11:20Z</time>
      </trkpt>
      <trkpt lat="43.3836" lon="5.9217">
        <ele>345</ele>
        <time>2017-03-30T14:11:29Z</time>
      </trkpt>
      <trkpt lat="43.38369" lon="5.92172">
        <ele>345</ele>
        <time>2017-03-30T14:11:38Z</time>
      </trkpt>
      <trkpt lat="43.38375" lon="5.92181">
        <ele>345</ele>
        <time>2017-03-30T14:11:45Z</time>
      </trkpt>
      <trkpt lat="43.38384" lon="5.92187">
        <ele>345</ele>
        <time>2017-03-30T14:11:51Z</time>
      </trkpt>
      <trkpt lat="43.38394" lon="5.92193">
        <ele>345</ele>
        <time>2017-03-30T14:12:00Z</time>
      </trkpt>
      <trkpt lat="43.38405" lon="5.92197">
        <ele>345</ele>
        <time>2017-03-30T14:12:11Z</time>
      </trkpt>
      <trkpt lat="43.38413" lon="5.92202">
        <ele>345</ele>
        <time>2017-03-30T14:12:22Z</time>
      </trkpt>
      <trkpt lat="43.38422" lon="5.92206">
        <ele>345</ele>
        <time>2017-03-30T14:12:33Z</time>
      </trkpt>
      <trkpt lat="43.3843" lon="5.92214">
        <ele>345</ele>
        <time>2017-03-30T14:12:44Z</time>
      </trkpt>
      <trkpt lat="43.38437" lon="5.92222">
        <ele>345</ele>
        <time>2017-03-30T14:12:53Z</time>
      </trkpt>
      <trkpt lat="43.38446" lon="5.92228">
        <ele>345</ele>
        <time>2017-03-30T14:13:04Z</time>
      </trkpt>
      <trkpt lat="43.38454" lon="5.92237">
        <ele>345</ele>
        <time>2017-03-30T14:13:14Z</time>
      </trkpt>
      <trkpt lat="43.38459" lon="5.9225">
        <ele>345</ele>
        <time>2017-03-30T14:13:23Z</time>
      </trkpt>
      <trkpt lat="43.38466" lon="5.9226">
        <ele>345</ele>
        <time>2017-03-30T14:13:31Z</time>
      </trkpt>
      <trkpt lat="43.38472" lon="5.9227">
        <ele>345</ele>
        <time>2017-03-30T14:13:39Z</time>
      </trkpt>
      <trkpt lat="43.38477" lon="5.92281">
        <ele>345</ele>
        <time>2017-03-30T14:13:47Z</time>
      </trkpt>
      <trkpt lat="43.38482" lon="5.92291">
        <ele>345</ele>
        <time>2017-03-30T14:13:55Z</time>
      </trkpt>
      <trkpt lat="43.38489" lon="5.92301">
        <ele>345</ele>
        <time>2017-03-30T14:14:05Z</time>
      </trkpt>
      <trkpt lat="43.38495" lon="5.92312">
        <ele>345</ele>
        <time>2017-03-30T14:14:16Z</time>
      </trkpt>
      <trkpt lat="43.38498" lon="5.92324">
        <ele>345</ele>
        <time>2017-03-30T14:14:25Z</time>
      </trkpt>
      <trkpt lat="43.38501" lon="5.92337">
        <ele>345</ele>
        <time>2017-03-30T14:14:33Z</time>
      </trkpt>
      <trkpt lat="43.38504" lon="5.92349">
        <ele>345</ele>
        <time>2017-03-30T14:14:40Z</time>
      </trkpt>
      <trkpt lat="43.38507" lon="5.92362">
        <ele>345</ele>
        <time>2017-03-30T14:14:48Z</time>
      </trkpt>
      <trkpt lat="43.38506" lon="5.92375">
        <ele>345</ele>
        <time>2017-03-30T14:14:56Z</time>
      </trkpt>
      <trkpt lat="43.38508" lon="5.92388">
        <ele>345</ele>
        <time>2017-03-30T14:15:07Z</time>
      </trkpt>
      <trkpt lat="43.38508" lon="5.924">
        <ele>345</ele>
        <time>2017-03-30T14:15:15Z</time>
      </trkpt>
      <trkpt lat="43.38507" lon="5.92413">
        <ele>345</ele>
        <time>2017-03-30T14:15:27Z</time>
      </trkpt>
      <trkpt lat="43.38502" lon="5.92424">
        <ele>344</ele>
        <time>2017-03-30T14:15:37Z</time>
      </trkpt>
      <trkpt lat="43.38498" lon="5.92436">
        <ele>344</ele>
        <time>2017-03-30T14:15:44Z</time>
      </trkpt>
      <trkpt lat="43.38493" lon="5.92447">
        <ele>344</ele>
        <time>2017-03-30T14:15:55Z</time>
      </trkpt>
      <trkpt lat="43.38491" lon="5.92461">
        <ele>344</ele>
        <time>2017-03-30T14:16:02Z</time>
      </trkpt>
      <trkpt lat="43.38487" lon="5.92472">
        <ele>344</ele>
        <time>2017-03-30T14:16:13Z</time>
      </trkpt>
      <trkpt lat="43.38484" lon="5.92484">
        <ele>344</ele>
        <time>2017-03-30T14:16:20Z</time>
      </trkpt>
      <trkpt lat="43.38479" lon="5.92495">
        <ele>344</ele>
        <time>2017-03-30T14:16:29Z</time>
      </trkpt>
      <trkpt lat="43.38476" lon="5.92507">
        <ele>344</ele>
        <time>2017-03-30T14:16:39Z</time>
      </trkpt>
      <trkpt lat="43.38471" lon="5.92518">
        <ele>344</ele>
        <time>2017-03-30T14:16:48Z</time>
      </trkpt>
      <trkpt lat="43.38466" lon="5.92528">
        <ele>344</ele>
        <time>2017-03-30T14:16:57Z</time>
      </trkpt>
      <trkpt lat="43.38464" lon="5.9254">
        <ele>344</ele>
        <time>2017-03-30T14:17:09Z</time>
      </trkpt>
      <trkpt lat="43.38472" lon="5.92549">
        <ele>344</ele>
        <time>2017-03-30T14:17:44Z</time>
      </trkpt>
      <trkpt lat="43.38481" lon="5.92547">
        <ele>343</ele>
        <time>2017-03-30T14:18:02Z</time>
      </trkpt>
      <trkpt lat="43.3849" lon="5.92543">
        <ele>343</ele>
        <time>2017-03-30T14:19:16Z</time>
      </trkpt>
      <trkpt lat="43.38499" lon="5.92545">
        <ele>343</ele>
        <time>2017-03-30T14:19:30Z</time>
      </trkpt>
      <trkpt lat="43.38508" lon="5.92547">
        <ele>343</ele>
        <time>2017-03-30T14:19:47Z</time>
      </trkpt>
      <trkpt lat="43.38516" lon="5.9254">
        <ele>342</ele>
        <time>2017-03-30T14:21:44Z</time>
      </trkpt>
      <trkpt lat="43.38525" lon="5.92539">
        <ele>342</ele>
        <time>2017-03-30T14:21:57Z</time>
      </trkpt>
      <trkpt lat="43.38533" lon="5.92538">
        <ele>342</ele>
        <time>2017-03-30T14:22:09Z</time>
      </trkpt>
      <trkpt lat="43.38543" lon="5.92535">
        <ele>342</ele>
        <time>2017-03-30T14:22:20Z</time>
      </trkpt>
      <trkpt lat="43.38553" lon="5.92535">
        <ele>342</ele>
        <time>2017-03-30T14:22:39Z</time>
      </trkpt>
      <trkpt lat="43.38561" lon="5.92541">
        <ele>342</ele>
        <time>2017-03-30T14:22:49Z</time>
      </trkpt>
      <trkpt lat="43.3857" lon="5.92541">
        <ele>341</ele>
        <time>2017-03-30T14:23:26Z</time>
      </trkpt>
      <trkpt lat="43.38579" lon="5.92545">
        <ele>341</ele>
        <time>2017-03-30T14:23:39Z</time>
      </trkpt>
      <trkpt lat="43.38585" lon="5.92556">
        <ele>341</ele>
        <time>2017-03-30T14:23:52Z</time>
      </trkpt>
      <trkpt lat="43.38591" lon="5.92566">
        <ele>341</ele>
        <time>2017-03-30T14:24:00Z</time>
      </trkpt>
      <trkpt lat="43.38596" lon="5.92577">
        <ele>341</ele>
        <time>2017-03-30T14:24:12Z</time>
      </trkpt>
      <trkpt lat="43.386" lon="5.92588">
        <ele>341</ele>
        <time>2017-03-30T14:24:28Z</time>
      </trkpt>
      <trkpt lat="43.38601" lon="5.92601">
        <ele>341</ele>
        <time>2017-03-30T14:24:38Z</time>
      </trkpt>
      <trkpt lat="43.38603" lon="5.92614">
        <ele>341</ele>
        <time>2017-03-30T14:25:01Z</time>
      </trkpt>
      <trkpt lat="43.38608" lon="5.92625">
        <ele>341</ele>
        <time>2017-03-30T14:25:37Z</time>
      </trkpt>
      <trkpt lat="43.38613" lon="5.92636">
        <ele>340</ele>
        <time>2017-03-30T14:25:56Z</time>
      </trkpt>
      <trkpt lat="43.38618" lon="5.92649">
        <ele>340</ele>
        <time>2017-03-30T14:26:18Z</time>
      </trkpt>
      <trkpt lat="43.38624" lon="5.92658">
        <ele>340</ele>
        <time>2017-03-30T14:26:47Z</time>
      </trkpt>
      <trkpt lat="43.3863" lon="5.9267">
        <ele>340</ele>
        <time>2017-03-30T14:27:16Z</time>
      </trkpt>
      <trkpt lat="43.38631" lon="5.92683">
        <ele>340</ele>
        <time>2017-03-30T14:27:29Z</time>
      </trkpt>
      <trkpt lat="43.38629" lon="5.92697">
        <ele>340</ele>
        <time>2017-03-30T14:27:34Z</time>
      </trkpt>
      <trkpt lat="43.38624" lon="5.92708">
        <ele>340</ele>
        <time>2017-03-30T14:27:41Z</time>
      </trkpt>
      <trkpt lat="43.38624" lon="5.92722">
        <ele>339</ele>
        <time>2017-03-30T14:27:53Z</time>
      </trkpt>
      <trkpt lat="43.3863" lon="5.92734">
        <ele>339</ele>
        <time>2017-03-30T14:27:59Z</time>
      </trkpt>
      <trkpt lat="43.38636" lon="5.92742">
        <ele>339</ele>
        <time>2017-03-30T14:28:15Z</time>
      </trkpt>
      <trkpt lat="43.38644" lon="5.9275">
        <ele>339</ele>
        <time>2017-03-30T14:28:26Z</time>
      </trkpt>
      <trkpt lat="43.38652" lon="5.92756">
        <ele>339</ele>
        <time>2017-03-30T14:28:44Z</time>
      </trkpt>
      <trkpt lat="43.38661" lon="5.9276">
        <ele>339</ele>
        <time>2017-03-30T14:28:53Z</time>
      </trkpt>
      <trkpt lat="43.38671" lon="5.92763">
        <ele>338</ele>
        <time>2017-03-30T14:29:08Z</time>
      </trkpt>
      <trkpt lat="43.3868" lon="5.92765">
        <ele>338</ele>
        <time>2017-03-30T14:29:23Z</time>
      </trkpt>
      <trkpt lat="43.38689" lon="5.9277">
        <ele>338</ele>
        <time>2017-03-30T14:29:33Z</time>
      </trkpt>
      <trkpt lat="43.38698" lon="5.92772">
        <ele>338</ele>
        <time>2017-03-30T14:29:44Z</time>
      </trkpt>
      <trkpt lat="43.38707" lon="5.92776">
        <ele>338</ele>
        <time>2017-03-30T14:29:51Z</time>
      </trkpt>
      <trkpt lat="43.38715" lon="5.92786">
        <ele>338</ele>
        <time>2017-03-30T14:30:00Z</time>
      </trkpt>
      <trkpt lat="43.38724" lon="5.92784">
        <ele>338</ele>
        <time>2017-03-30T14:30:26Z</time>
      </trkpt>
      <trkpt lat="43.38733" lon="5.92788">
        <ele>338</ele>
        <time>2017-03-30T14:30:42Z</time>
      </trkpt>
      <trkpt lat="43.3874" lon="5.92798">
        <ele>338</ele>
        <time>2017-03-30T14:30:53Z</time>
      </trkpt>
      <trkpt lat="43.38745" lon="5.9281">
        <ele>338</ele>
        <time>2017-03-30T14:31:05Z</time>
      </trkpt>
      <trkpt lat="43.38751" lon="5.9282">
        <ele>338</ele>
        <time>2017-03-30T14:31:14Z</time>
      </trkpt>
      <trkpt lat="43.38753" lon="5.92834">
        <ele>338</ele>
        <time>2017-03-30T14:31:21Z</time>
      </trkpt>
      <trkpt lat="43.38751" lon="5.92846">
        <ele>338</ele>
        <time>2017-03-30T14:31:30Z</time>
      </trkpt>
      <trkpt lat="43.38746" lon="5.92857">
        <ele>338</ele>
        <time>2017-03-30T14:31:36Z</time>
      </trkpt>
      <trkpt lat="43.38741" lon="5.92869">
        <ele>338</ele>
        <time>2017-03-30T14:31:46Z</time>
      </trkpt>
      <trkpt lat="43.38734" lon="5.92878">
        <ele>337</ele>
        <time>2017-03-30T14:31:55Z</time>
      </trkpt>
      <trkpt lat="43.38727" lon="5.92887">
        <ele>337</ele>
        <time>2017-03-30T14:32:04Z</time>
      </trkpt>
      <trkpt lat="43.3872" lon="5.92897">
        <ele>337</ele>
        <time>2017-03-30T14:32:12Z</time>
      </trkpt>
      <trkpt lat="43.38712" lon="5.92904">
        <ele>337</ele>
        <time>2017-03-30T14:32:20Z</time>
      </trkpt>
      <trkpt lat="43.38704" lon="5.9291">
        <ele>337</ele>
        <time>2017-03-30T14:32:30Z</time>
      </trkpt>
      <trkpt lat="43.38695" lon="5.92915">
        <ele>337</ele>
        <time>2017-03-30T14:32:41Z</time>
      </trkpt>
      <trkpt lat="43.38686" lon="5.9292">
        <ele>337</ele>
        <time>2017-03-30T14:32:54Z</time>
      </trkpt>
      <trkpt lat="43.38684" lon="5.92933">
        <ele>337</ele>
        <time>2017-03-30T14:33:04Z</time>
      </trkpt>
      <trkpt lat="43.38688" lon="5.92944">
        <ele>337</ele>
        <time>2017-03-30T14:33:18Z</time>
      </trkpt>
      <trkpt lat="43.38696" lon="5.9295">
        <ele>337</ele>
        <time>2017-03-30T14:33:32Z</time>
      </trkpt>
      <trkpt lat="43.38705" lon="5.92955">
        <ele>337</ele>
        <time>2017-03-30T14:33:44Z</time>
      </trkpt>
      <trkpt lat="43.38714" lon="5.92958">
        <ele>337</ele>
        <time>2017-03-30T14:33:55Z</time>
      </trkpt>
      <trkpt lat="43.38724" lon="5.92959">
        <ele>337</ele>
        <time>2017-03-30T14:34:03Z</time>
      </trkpt>
      <trkpt lat="43.38733" lon="5.9296">
        <ele>337</ele>
        <time>2017-03-30T14:34:10Z</time>
      </trkpt>
      <trkpt lat="43.38743" lon="5.92963">
        <ele>337</ele>
        <time>2017-03-30T14:34:18Z</time>
      </trkpt>
      <trkpt lat="43.38751" lon="5.92966">
        <ele>337</ele>
        <time>2017-03-30T14:34:28Z</time>
      </trkpt>
      <trkpt lat="43.3876" lon="5.92968">
        <ele>337</ele>
        <time>2017-03-30T14:34:36Z</time>
      </trkpt>
      <trkpt lat="43.38769" lon="5.92972">
        <ele>337</ele>
        <time>2017-03-30T14:34:48Z</time>
      </trkpt>
      <trkpt lat="43.38778" lon="5.92975">
        <ele>337</ele>
        <time>2017-03-30T14:34:57Z</time>
      </trkpt>
      <trkpt lat="43.38788" lon="5.92977">
        <ele>337</ele>
        <time>2017-03-30T14:35:12Z</time>
      </trkpt>
      <trkpt lat="43.38797" lon="5.9298">
        <ele>337</ele>
        <time>2017-03-30T14:35:22Z</time>
      </trkpt>
      <trkpt lat="43.38806" lon="5.92983">
        <ele>337</ele>
        <time>2017-03-30T14:35:34Z</time>
      </trkpt>
      <trkpt lat="43.38816" lon="5.92985">
        <ele>337</ele>
        <time>2017-03-30T14:35:47Z</time>
      </trkpt>
      <trkpt lat="43.38821" lon="5.92996">
        <ele>337</ele>
        <time>2017-03-30T14:35:56Z</time>
      </trkpt>
      <trkpt lat="43.3883" lon="5.92998">
        <ele>337</ele>
        <time>2017-03-30T14:36:27Z</time>
      </trkpt>
      <trkpt lat="43.38839" lon="5.93003">
        <ele>337</ele>
        <time>2017-03-30T14:36:40Z</time>
      </trkpt>
      <trkpt lat="43.38847" lon="5.93009">
        <ele>337</ele>
        <time>2017-03-30T14:36:59Z</time>
      </trkpt>
      <trkpt lat="43.38856" lon="5.93014">
        <ele>337</ele>
        <time>2017-03-30T14:37:12Z</time>
      </trkpt>
      <trkpt lat="43.38865" lon="5.93021">
        <ele>336</ele>
        <time>2017-03-30T14:37:21Z</time>
      </trkpt>
      <trkpt lat="43.38874" lon="5.93024">
        <ele>336</ele>
        <time>2017-03-30T14:37:41Z</time>
      </trkpt>
      <trkpt lat="43.38881" lon="5.93032">
        <ele>336</ele>
        <time>2017-03-30T14:38:00Z</time>
      </trkpt>
      <trkpt lat="43.38888" lon="5.9304">
        <ele>336</ele>
        <time>2017-03-30T14:38:12Z</time>
      </trkpt>
      <trkpt lat="43.38895" lon="5.9305">
        <ele>336</ele>
        <time>2017-03-30T14:38:23Z</time>
      </trkpt>
      <trkpt lat="43.38901" lon="5.93059">
        <ele>336</ele>
        <time>2017-03-30T14:38:41Z</time>
      </trkpt>
      <trkpt lat="43.38907" lon="5.93068">
        <ele>336</ele>
        <time>2017-03-30T14:38:51Z</time>
      </trkpt>
      <trkpt lat="43.38917" lon="5.93072">
        <ele>336</ele>
        <time>2017-03-30T14:39:06Z</time>
      </trkpt>
      <trkpt lat="43.38926" lon="5.93076">
        <ele>336</ele>
        <time>2017-03-30T14:39:19Z</time>
      </trkpt>
      <trkpt lat="43.38932" lon="5.93086">
        <ele>335</ele>
        <time>2017-03-30T14:39:27Z</time>
      </trkpt>
      <trkpt lat="43.38939" lon="5.93095">
        <ele>335</ele>
        <time>2017-03-30T14:39:37Z</time>
      </trkpt>
      <trkpt lat="43.38945" lon="5.93107">
        <ele>335</ele>
        <time>2017-03-30T14:39:47Z</time>
      </trkpt>
      <trkpt lat="43.3895" lon="5.93117">
        <ele>335</ele>
        <time>2017-03-30T14:39:59Z</time>
      </trkpt>
      <trkpt lat="43.38949" lon="5.93131">
        <ele>335</ele>
        <time>2017-03-30T14:40:06Z</time>
      </trkpt>
      <trkpt lat="43.38941" lon="5.93138">
        <ele>335</ele>
        <time>2017-03-30T14:40:18Z</time>
      </trkpt>
      <trkpt lat="43.38932" lon="5.93138">
        <ele>334</ele>
        <time>2017-03-30T14:40:36Z</time>
      </trkpt>
      <trkpt lat="43.38936" lon="5.93126">
        <ele>334</ele>
        <time>2017-03-30T14:41:09Z</time>
      </trkpt>
      <trkpt lat="43.38944" lon="5.93134">
        <ele>334</ele>
        <time>2017-03-30T14:41:29Z</time>
      </trkpt>
      <trkpt lat="43.38949" lon="5.93123">
        <ele>334</ele>
        <time>2017-03-30T14:42:28Z</time>
      </trkpt>
      <trkpt lat="43.38959" lon="5.93125">
        <ele>333</ele>
        <time>2017-03-30T14:42:37Z</time>
      </trkpt>
      <trkpt lat="43.38967" lon="5.9313">
        <ele>333</ele>
        <time>2017-03-30T14:42:45Z</time>
      </trkpt>
      <trkpt lat="43.38976" lon="5.93132">
        <ele>333</ele>
        <time>2017-03-30T14:42:51Z</time>
      </trkpt>
      <trkpt lat="43.38984" lon="5.9314">
        <ele>333</ele>
        <time>2017-03-30T14:43:00Z</time>
      </trkpt>
      <trkpt lat="43.38992" lon="5.93147">
        <ele>333</ele>
        <time>2017-03-30T14:43:09Z</time>
      </trkpt>
      <trkpt lat="43.39" lon="5.93153">
        <ele>333</ele>
        <time>2017-03-30T14:43:16Z</time>
      </trkpt>
      <trkpt lat="43.39008" lon="5.93161">
        <ele>333</ele>
        <time>2017-03-30T14:43:26Z</time>
      </trkpt>
      <trkpt lat="43.39015" lon="5.9317">
        <ele>333</ele>
        <time>2017-03-30T14:43:36Z</time>
      </trkpt>
      <trkpt lat="43.39021" lon="5.9318">
        <ele>333</ele>
        <time>2017-03-30T14:43:46Z</time>
      </trkpt>
      <trkpt lat="43.39029" lon="5.93186">
        <ele>333</ele>
        <time>2017-03-30T14:43:55Z</time>
      </trkpt>
      <trkpt lat="43.39038" lon="5.93183">
        <ele>332</ele>
        <time>2017-03-30T14:44:09Z</time>
      </trkpt>
      <trkpt lat="43.39048" lon="5.93186">
        <ele>332</ele>
        <time>2017-03-30T14:44:19Z</time>
      </trkpt>
      <trkpt lat="43.39056" lon="5.93181">
        <ele>332</ele>
        <time>2017-03-30T14:44:33Z</time>
      </trkpt>
      <trkpt lat="43.39056" lon="5.93194">
        <ele>332</ele>
        <time>2017-03-30T14:45:41Z</time>
      </trkpt>
      <trkpt lat="43.39063" lon="5.93186">
        <ele>332</ele>
        <time>2017-03-30T14:47:06Z</time>
      </trkpt>
      <trkpt lat="43.39069" lon="5.93175">
        <ele>332</ele>
        <time>2017-03-30T14:48:16Z</time>
      </trkpt>
      <trkpt lat="43.39078" lon="5.93178">
        <ele>333</ele>
        <time>2017-03-30T14:54:40Z</time>
      </trkpt>
      <trkpt lat="43.39071" lon="5.93185">
        <ele>334</ele>
        <time>2017-03-30T14:58:26Z</time>
      </trkpt>
      <trkpt lat="43.3906" lon="5.9319">
        <ele>334</ele>
        <time>2017-03-30T14:58:31Z</time>
      </trkpt>
      <trkpt lat="43.39054" lon="5.93201">
        <ele>334</ele>
        <time>2017-03-30T14:58:35Z</time>
      </trkpt>
      <trkpt lat="43.39051" lon="5.93214">
        <ele>334</ele>
        <time>2017-03-30T14:58:40Z</time>
      </trkpt>
      <trkpt lat="43.39057" lon="5.93226">
        <ele>334</ele>
        <time>2017-03-30T14:58:43Z</time>
      </trkpt>
      <trkpt lat="43.39065" lon="5.9324">
        <ele>334</ele>
        <time>2017-03-30T14:58:45Z</time>
      </trkpt>
      <trkpt lat="43.39073" lon="5.93253">
        <ele>334</ele>
        <time>2017-03-30T14:58:47Z</time>
      </trkpt>
      <trkpt lat="43.39079" lon="5.93266">
        <ele>334</ele>
        <time>2017-03-30T14:58:49Z</time>
      </trkpt>
      <trkpt lat="43.39082" lon="5.93282">
        <ele>334</ele>
        <time>2017-03-30T14:58:51Z</time>
      </trkpt>
      <trkpt lat="43.39085" lon="5.93299">
        <ele>334</ele>
        <time>2017-03-30T14:58:53Z</time>
      </trkpt>
      <trkpt lat="43.39086" lon="5.93315">
        <ele>334</ele>
        <time>2017-03-30T14:58:55Z</time>
      </trkpt>
      <trkpt lat="43.39082" lon="5.93329">
        <ele>334</ele>
        <time>2017-03-30T14:58:57Z</time>
      </trkpt>
      <trkpt lat="43.39079" lon="5.93342">
        <ele>334</ele>
        <time>2017-03-30T14:58:59Z</time>
      </trkpt>
      <trkpt lat="43.39079" lon="5.93357">
        <ele>333</ele>
        <time>2017-03-30T14:59:03Z</time>
      </trkpt>
      <trkpt lat="43.39079" lon="5.93371">
        <ele>333</ele>
        <time>2017-03-30T14:59:05Z</time>
      </trkpt>
      <trkpt lat="43.39084" lon="5.93388">
        <ele>333</ele>
        <time>2017-03-30T14:59:08Z</time>
      </trkpt>
      <trkpt lat="43.39087" lon="5.934">
        <ele>333</ele>
        <time>2017-03-30T14:59:10Z</time>
      </trkpt>
      <trkpt lat="43.39095" lon="5.93415">
        <ele>333</ele>
        <time>2017-03-30T14:59:13Z</time>
      </trkpt>
      <trkpt lat="43.39105" lon="5.93424">
        <ele>333</ele>
        <time>2017-03-30T14:59:15Z</time>
      </trkpt>
      <trkpt lat="43.39115" lon="5.93432">
        <ele>333</ele>
        <time>2017-03-30T14:59:17Z</time>
      </trkpt>
      <trkpt lat="43.39128" lon="5.93438">
        <ele>333</ele>
        <time>2017-03-30T14:59:19Z</time>
      </trkpt>
      <trkpt lat="43.39137" lon="5.93442">
        <ele>333</ele>
        <time>2017-03-30T14:59:21Z</time>
      </trkpt>
      <trkpt lat="43.39149" lon="5.93444">
        <ele>333</ele>
        <time>2017-03-30T14:59:24Z</time>
      </trkpt>
      <trkpt lat="43.3916" lon="5.93444">
        <ele>333</ele>
        <time>2017-03-30T14:59:27Z</time>
      </trkpt>
      <trkpt lat="43.39171" lon="5.93443">
        <ele>333</ele>
        <time>2017-03-30T14:59:31Z</time>
      </trkpt>
      <trkpt lat="43.39182" lon="5.9344">
        <ele>333</ele>
        <time>2017-03-30T14:59:35Z</time>
      </trkpt>
      <trkpt lat="43.39195" lon="5.93438">
        <ele>334</ele>
        <time>2017-03-30T14:59:38Z</time>
      </trkpt>
      <trkpt lat="43.39206" lon="5.93436">
        <ele>334</ele>
        <time>2017-03-30T14:59:41Z</time>
      </trkpt>
      <trkpt lat="43.39219" lon="5.93435">
        <ele>334</ele>
        <time>2017-03-30T14:59:44Z</time>
      </trkpt>
      <trkpt lat="43.3923" lon="5.93436">
        <ele>334</ele>
        <time>2017-03-30T14:59:46Z</time>
      </trkpt>
      <trkpt lat="43.39241" lon="5.9344">
        <ele>334</ele>
        <time>2017-03-30T14:59:48Z</time>
      </trkpt>
      <trkpt lat="43.39252" lon="5.93445">
        <ele>334</ele>
        <time>2017-03-30T14:59:50Z</time>
      </trkpt>
      <trkpt lat="43.39266" lon="5.93454">
        <ele>334</ele>
        <time>2017-03-30T14:59:53Z</time>
      </trkpt>
      <trkpt lat="43.39279" lon="5.93457">
        <ele>334</ele>
        <time>2017-03-30T14:59:55Z</time>
      </trkpt>
      <trkpt lat="43.39294" lon="5.93458">
        <ele>334</ele>
        <time>2017-03-30T14:59:57Z</time>
      </trkpt>
      <trkpt lat="43.39306" lon="5.93459">
        <ele>334</ele>
        <time>2017-03-30T14:59:59Z</time>
      </trkpt>
      <trkpt lat="43.39317" lon="5.9346">
        <ele>334</ele>
        <time>2017-03-30T15:00:01Z</time>
      </trkpt>
      <trkpt lat="43.39328" lon="5.93463">
        <ele>334</ele>
        <time>2017-03-30T15:00:03Z</time>
      </trkpt>
      <trkpt lat="43.39343" lon="5.93467">
        <ele>334</ele>
        <time>2017-03-30T15:00:05Z</time>
      </trkpt>
      <trkpt lat="43.39357" lon="5.93471">
        <ele>333</ele>
        <time>2017-03-30T15:00:07Z</time>
      </trkpt>
      <trkpt lat="43.39368" lon="5.93469">
        <ele>333</ele>
        <time>2017-03-30T15:00:09Z</time>
      </trkpt>
      <trkpt lat="43.39383" lon="5.93469">
        <ele>333</ele>
        <time>2017-03-30T15:00:11Z</time>
      </trkpt>
      <trkpt lat="43.39398" lon="5.93463">
        <ele>333</ele>
        <time>2017-03-30T15:00:13Z</time>
      </trkpt>
      <trkpt lat="43.39413" lon="5.93461">
        <ele>333</ele>
        <time>2017-03-30T15:00:15Z</time>
      </trkpt>
      <trkpt lat="43.39428" lon="5.93459">
        <ele>333</ele>
        <time>2017-03-30T15:00:17Z</time>
      </trkpt>
      <trkpt lat="43.39444" lon="5.93459">
        <ele>333</ele>
        <time>2017-03-30T15:00:19Z</time>
      </trkpt>
      <trkpt lat="43.39459" lon="5.93462">
        <ele>332</ele>
        <time>2017-03-30T15:00:21Z</time>
      </trkpt>
      <trkpt lat="43.39471" lon="5.93461">
        <ele>332</ele>
        <time>2017-03-30T15:00:23Z</time>
      </trkpt>
      <trkpt lat="43.39484" lon="5.93453">
        <ele>332</ele>
        <time>2017-03-30T15:00:25Z</time>
      </trkpt>
      <trkpt lat="43.39494" lon="5.93437">
        <ele>332</ele>
        <time>2017-03-30T15:00:27Z</time>
      </trkpt>
      <trkpt lat="43.39505" lon="5.9342">
        <ele>331</ele>
        <time>2017-03-30T15:00:29Z</time>
      </trkpt>
      <trkpt lat="43.39517" lon="5.9341">
        <ele>331</ele>
        <time>2017-03-30T15:00:31Z</time>
      </trkpt>
      <trkpt lat="43.39532" lon="5.93407">
        <ele>331</ele>
        <time>2017-03-30T15:00:33Z</time>
      </trkpt>
      <trkpt lat="43.39545" lon="5.93403">
        <ele>331</ele>
        <time>2017-03-30T15:00:35Z</time>
      </trkpt>
      <trkpt lat="43.39559" lon="5.93402">
        <ele>331</ele>
        <time>2017-03-30T15:00:37Z</time>
      </trkpt>
      <trkpt lat="43.39573" lon="5.93406">
        <ele>331</ele>
        <time>2017-03-30T15:00:39Z</time>
      </trkpt>
      <trkpt lat="43.39587" lon="5.93407">
        <ele>331</ele>
        <time>2017-03-30T15:00:41Z</time>
      </trkpt>
      <trkpt lat="43.39601" lon="5.93405">
        <ele>331</ele>
        <time>2017-03-30T15:00:43Z</time>
      </trkpt>
      <trkpt lat="43.39615" lon="5.93402">
        <ele>331</ele>
        <time>2017-03-30T15:00:45Z</time>
      </trkpt>
      <trkpt lat="43.39629" lon="5.93402">
        <ele>331</ele>
        <time>2017-03-30T15:00:47Z</time>
      </trkpt>
      <trkpt lat="43.39642" lon="5.93406">
        <ele>331</ele>
        <time>2017-03-30T15:00:49Z</time>
      </trkpt>
      <trkpt lat="43.39656" lon="5.93407">
        <ele>331</ele>
        <time>2017-03-30T15:00:51Z</time>
      </trkpt>
      <trkpt lat="43.39669" lon="5.93405">
        <ele>331</ele>
        <time>2017-03-30T15:00:53Z</time>
      </trkpt>
      <trkpt lat="43.39685" lon="5.93404">
        <ele>332</ele>
        <time>2017-03-30T15:00:55Z</time>
      </trkpt>
      <trkpt lat="43.39697" lon="5.93404">
        <ele>332</ele>
        <time>2017-03-30T15:00:57Z</time>
      </trkpt>
      <trkpt lat="43.39708" lon="5.93399">
        <ele>332</ele>
        <time>2017-03-30T15:00:59Z</time>
      </trkpt>
      <trkpt lat="43.39715" lon="5.93391">
        <ele>332</ele>
        <time>2017-03-30T15:01:01Z</time>
      </trkpt>
      <trkpt lat="43.39724" lon="5.93382">
        <ele>333</ele>
        <time>2017-03-30T15:01:03Z</time>
      </trkpt>
      <trkpt lat="43.39734" lon="5.93366">
        <ele>333</ele>
        <time>2017-03-30T15:01:05Z</time>
      </trkpt>
      <trkpt lat="43.3974" lon="5.93354">
        <ele>333</ele>
        <time>2017-03-30T15:01:07Z</time>
      </trkpt>
      <trkpt lat="43.39748" lon="5.93341">
        <ele>333</ele>
        <time>2017-03-30T15:01:10Z</time>
      </trkpt>
      <trkpt lat="43.39758" lon="5.93325">
        <ele>333</ele>
        <time>2017-03-30T15:01:12Z</time>
      </trkpt>
      <trkpt lat="43.39772" lon="5.93311">
        <ele>333</ele>
        <time>2017-03-30T15:01:14Z</time>
      </trkpt>
      <trkpt lat="43.39786" lon="5.93295">
        <ele>333</ele>
        <time>2017-03-30T15:01:16Z</time>
      </trkpt>
      <trkpt lat="43.39793" lon="5.93287">
        <ele>333</ele>
        <time>2017-03-30T15:01:17Z</time>
      </trkpt>
      <trkpt lat="43.39806" lon="5.93273">
        <ele>333</ele>
        <time>2017-03-30T15:01:19Z</time>
      </trkpt>
      <trkpt lat="43.39818" lon="5.93261">
        <ele>333</ele>
        <time>2017-03-30T15:01:21Z</time>
      </trkpt>
      <trkpt lat="43.39828" lon="5.93249">
        <ele>333</ele>
        <time>2017-03-30T15:01:23Z</time>
      </trkpt>
      <trkpt lat="43.39838" lon="5.93236">
        <ele>333</ele>
        <time>2017-03-30T15:01:25Z</time>
      </trkpt>
      <trkpt lat="43.39848" lon="5.93218">
        <ele>333</ele>
        <time>2017-03-30T15:01:27Z</time>
      </trkpt>
      <trkpt lat="43.3986" lon="5.93202">
        <ele>332</ele>
        <time>2017-03-30T15:01:29Z</time>
      </trkpt>
      <trkpt lat="43.39866" lon="5.93192">
        <ele>332</ele>
        <time>2017-03-30T15:01:30Z</time>
      </trkpt>
      <trkpt lat="43.39879" lon="5.93177">
        <ele>332</ele>
        <time>2017-03-30T15:01:32Z</time>
      </trkpt>
      <trkpt lat="43.39891" lon="5.9316">
        <ele>332</ele>
        <time>2017-03-30T15:01:34Z</time>
      </trkpt>
      <trkpt lat="43.39899" lon="5.93141">
        <ele>331</ele>
        <time>2017-03-30T15:01:36Z</time>
      </trkpt>
      <trkpt lat="43.39907" lon="5.93119">
        <ele>331</ele>
        <time>2017-03-30T15:01:38Z</time>
      </trkpt>
      <trkpt lat="43.39916" lon="5.93099">
        <ele>331</ele>
        <time>2017-03-30T15:01:40Z</time>
      </trkpt>
      <trkpt lat="43.39927" lon="5.9308">
        <ele>331</ele>
        <time>2017-03-30T15:01:42Z</time>
      </trkpt>
      <trkpt lat="43.39937" lon="5.93067">
        <ele>331</ele>
        <time>2017-03-30T15:01:44Z</time>
      </trkpt>
      <trkpt lat="43.39948" lon="5.93055">
        <ele>330</ele>
        <time>2017-03-30T15:01:46Z</time>
      </trkpt>
      <trkpt lat="43.3996" lon="5.93041">
        <ele>330</ele>
        <time>2017-03-30T15:01:48Z</time>
      </trkpt>
      <trkpt lat="43.39972" lon="5.93028">
        <ele>330</ele>
        <time>2017-03-30T15:01:50Z</time>
      </trkpt>
      <trkpt lat="43.39987" lon="5.93016">
        <ele>329</ele>
        <time>2017-03-30T15:01:52Z</time>
      </trkpt>
      <trkpt lat="43.40001" lon="5.93003">
        <ele>329</ele>
        <time>2017-03-30T15:01:54Z</time>
      </trkpt>
      <trkpt lat="43.40014" lon="5.92989">
        <ele>329</ele>
        <time>2017-03-30T15:01:56Z</time>
      </trkpt>
      <trkpt lat="43.40027" lon="5.92974">
        <ele>329</ele>
        <time>2017-03-30T15:01:58Z</time>
      </trkpt>
      <trkpt lat="43.40038" lon="5.92961">
        <ele>329</ele>
        <time>2017-03-30T15:02:00Z</time>
      </trkpt>
      <trkpt lat="43.40051" lon="5.92946">
        <ele>329</ele>
        <time>2017-03-30T15:02:02Z</time>
      </trkpt>
      <trkpt lat="43.40057" lon="5.92937">
        <ele>329</ele>
        <time>2017-03-30T15:02:03Z</time>
      </trkpt>
      <trkpt lat="43.40069" lon="5.92922">
        <ele>330</ele>
        <time>2017-03-30T15:02:05Z</time>
      </trkpt>
      <trkpt lat="43.40081" lon="5.92907">
        <ele>330</ele>
        <time>2017-03-30T15:02:07Z</time>
      </trkpt>
      <trkpt lat="43.40091" lon="5.92895">
        <ele>330</ele>
        <time>2017-03-30T15:02:09Z</time>
      </trkpt>
      <trkpt lat="43.40099" lon="5.92886">
        <ele>331</ele>
        <time>2017-03-30T15:02:11Z</time>
      </trkpt>
      <trkpt lat="43.40107" lon="5.92875">
        <ele>330</ele>
        <time>2017-03-30T15:02:13Z</time>
      </trkpt>
      <trkpt lat="43.40119" lon="5.9286">
        <ele>330</ele>
        <time>2017-03-30T15:02:15Z</time>
      </trkpt>
      <trkpt lat="43.40132" lon="5.92845">
        <ele>329</ele>
        <time>2017-03-30T15:02:17Z</time>
      </trkpt>
      <trkpt lat="43.40144" lon="5.92831">
        <ele>329</ele>
        <time>2017-03-30T15:02:19Z</time>
      </trkpt>
      <trkpt lat="43.40156" lon="5.92818">
        <ele>328</ele>
        <time>2017-03-30T15:02:21Z</time>
      </trkpt>
      <trkpt lat="43.40168" lon="5.92801">
        <ele>327</ele>
        <time>2017-03-30T15:02:23Z</time>
      </trkpt>
      <trkpt lat="43.40174" lon="5.92792">
        <ele>327</ele>
        <time>2017-03-30T15:02:24Z</time>
      </trkpt>
      <trkpt lat="43.40181" lon="5.92782">
        <ele>327</ele>
        <time>2017-03-30T15:02:25Z</time>
      </trkpt>
      <trkpt lat="43.40191" lon="5.92763">
        <ele>326</ele>
        <time>2017-03-30T15:02:27Z</time>
      </trkpt>
      <trkpt lat="43.40202" lon="5.92745">
        <ele>326</ele>
        <time>2017-03-30T15:02:29Z</time>
      </trkpt>
      <trkpt lat="43.40214" lon="5.92727">
        <ele>326</ele>
        <time>2017-03-30T15:02:31Z</time>
      </trkpt>
      <trkpt lat="43.40225" lon="5.92713">
        <ele>326</ele>
        <time>2017-03-30T15:02:33Z</time>
      </trkpt>
      <trkpt lat="43.40233" lon="5.92703">
        <ele>325</ele>
        <time>2017-03-30T15:02:35Z</time>
      </trkpt>
      <trkpt lat="43.40242" lon="5.92693">
        <ele>325</ele>
        <time>2017-03-30T15:02:38Z</time>
      </trkpt>
      <trkpt lat="43.40249" lon="5.92682">
        <ele>325</ele>
        <time>2017-03-30T15:02:40Z</time>
      </trkpt>
      <trkpt lat="43.4026" lon="5.92669">
        <ele>325</ele>
        <time>2017-03-30T15:02:42Z</time>
      </trkpt>
      <trkpt lat="43.40274" lon="5.92659">
        <ele>325</ele>
        <time>2017-03-30T15:02:44Z</time>
      </trkpt>
      <trkpt lat="43.40288" lon="5.92651">
        <ele>325</ele>
        <time>2017-03-30T15:02:46Z</time>
      </trkpt>
      <trkpt lat="43.403" lon="5.9264">
        <ele>325</ele>
        <time>2017-03-30T15:02:48Z</time>
      </trkpt>
      <trkpt lat="43.40311" lon="5.92635">
        <ele>325</ele>
        <time>2017-03-30T15:02:50Z</time>
      </trkpt>
      <trkpt lat="43.40322" lon="5.92638">
        <ele>325</ele>
        <time>2017-03-30T15:02:52Z</time>
      </trkpt>
      <trkpt lat="43.40334" lon="5.92648">
        <ele>325</ele>
        <time>2017-03-30T15:02:54Z</time>
      </trkpt>
      <trkpt lat="43.4035" lon="5.9266">
        <ele>325</ele>
        <time>2017-03-30T15:02:56Z</time>
      </trkpt>
      <trkpt lat="43.40358" lon="5.92666">
        <ele>325</ele>
        <time>2017-03-30T15:02:57Z</time>
      </trkpt>
      <trkpt lat="43.40373" lon="5.92676">
        <ele>325</ele>
        <time>2017-03-30T15:02:59Z</time>
      </trkpt>
      <trkpt lat="43.40387" lon="5.92685">
        <ele>325</ele>
        <time>2017-03-30T15:03:01Z</time>
      </trkpt>
      <trkpt lat="43.40398" lon="5.92693">
        <ele>325</ele>
        <time>2017-03-30T15:03:03Z</time>
      </trkpt>
      <trkpt lat="43.40409" lon="5.92697">
        <ele>325</ele>
        <time>2017-03-30T15:03:05Z</time>
      </trkpt>
      <trkpt lat="43.40421" lon="5.92695">
        <ele>325</ele>
        <time>2017-03-30T15:03:07Z</time>
      </trkpt>
      <trkpt lat="43.40429" lon="5.92685">
        <ele>325</ele>
        <time>2017-03-30T15:03:09Z</time>
      </trkpt>
      <trkpt lat="43.40435" lon="5.92673">
        <ele>325</ele>
        <time>2017-03-30T15:03:11Z</time>
      </trkpt>
      <trkpt lat="43.40441" lon="5.92662">
        <ele>325</ele>
        <time>2017-03-30T15:03:13Z</time>
      </trkpt>
      <trkpt lat="43.40448" lon="5.92645">
        <ele>325</ele>
        <time>2017-03-30T15:03:19Z</time>
      </trkpt>
      <trkpt lat="43.40451" lon="5.92633">
        <ele>325</ele>
        <time>2017-03-30T15:03:22Z</time>
      </trkpt>
      <trkpt lat="43.40455" lon="5.92621">
        <ele>325</ele>
        <time>2017-03-30T15:03:24Z</time>
      </trkpt>
      <trkpt lat="43.4046" lon="5.92608">
        <ele>325</ele>
        <time>2017-03-30T15:03:26Z</time>
      </trkpt>
      <trkpt lat="43.40465" lon="5.92595">
        <ele>325</ele>
        <time>2017-03-30T15:03:28Z</time>
      </trkpt>
      <trkpt lat="43.40469" lon="5.92583">
        <ele>325</ele>
        <time>2017-03-30T15:03:30Z</time>
      </trkpt>
      <trkpt lat="43.40473" lon="5.9257">
        <ele>325</ele>
        <time>2017-03-30T15:03:33Z</time>
      </trkpt>
      <trkpt lat="43.40479" lon="5.92554">
        <ele>326</ele>
        <time>2017-03-30T15:03:36Z</time>
      </trkpt>
      <trkpt lat="43.40485" lon="5.92538">
        <ele>327</ele>
        <time>2017-03-30T15:03:39Z</time>
      </trkpt>
      <trkpt lat="43.40488" lon="5.92526">
        <ele>327</ele>
        <time>2017-03-30T15:03:41Z</time>
      </trkpt>
      <trkpt lat="43.40494" lon="5.92514">
        <ele>327</ele>
        <time>2017-03-30T15:03:43Z</time>
      </trkpt>
      <trkpt lat="43.40499" lon="5.92504">
        <ele>327</ele>
        <time>2017-03-30T15:03:45Z</time>
      </trkpt>
      <trkpt lat="43.40506" lon="5.9249">
        <ele>327</ele>
        <time>2017-03-30T15:03:47Z</time>
      </trkpt>
      <trkpt lat="43.40516" lon="5.92476">
        <ele>327</ele>
        <time>2017-03-30T15:03:49Z</time>
      </trkpt>
      <trkpt lat="43.40527" lon="5.92462">
        <ele>327</ele>
        <time>2017-03-30T15:03:51Z</time>
      </trkpt>
      <trkpt lat="43.40535" lon="5.9245">
        <ele>327</ele>
        <time>2017-03-30T15:03:53Z</time>
      </trkpt>
      <trkpt lat="43.40541" lon="5.92437">
        <ele>327</ele>
        <time>2017-03-30T15:03:55Z</time>
      </trkpt>
      <trkpt lat="43.40545" lon="5.92425">
        <ele>327</ele>
        <time>2017-03-30T15:03:57Z</time>
      </trkpt>
      <trkpt lat="43.40548" lon="5.92411">
        <ele>328</ele>
        <time>2017-03-30T15:03:59Z</time>
      </trkpt>
      <trkpt lat="43.40548" lon="5.92398">
        <ele>328</ele>
        <time>2017-03-30T15:04:01Z</time>
      </trkpt>
      <trkpt lat="43.40554" lon="5.92388">
        <ele>328</ele>
        <time>2017-03-30T15:04:04Z</time>
      </trkpt>
      <trkpt lat="43.40564" lon="5.92387">
        <ele>328</ele>
        <time>2017-03-30T15:04:06Z</time>
      </trkpt>
      <trkpt lat="43.40573" lon="5.9239">
        <ele>328</ele>
        <time>2017-03-30T15:04:08Z</time>
      </trkpt>
      <trkpt lat="43.40585" lon="5.9239">
        <ele>328</ele>
        <time>2017-03-30T15:04:11Z</time>
      </trkpt>
      <trkpt lat="43.40597" lon="5.92383">
        <ele>328</ele>
        <time>2017-03-30T15:04:13Z</time>
      </trkpt>
      <trkpt lat="43.40609" lon="5.92375">
        <ele>329</ele>
        <time>2017-03-30T15:04:15Z</time>
      </trkpt>
      <trkpt lat="43.40619" lon="5.92369">
        <ele>329</ele>
        <time>2017-03-30T15:04:17Z</time>
      </trkpt>
      <trkpt lat="43.4063" lon="5.92366">
        <ele>329</ele>
        <time>2017-03-30T15:04:20Z</time>
      </trkpt>
      <trkpt lat="43.40638" lon="5.92371">
        <ele>329</ele>
        <time>2017-03-30T15:04:22Z</time>
      </trkpt>
      <trkpt lat="43.40645" lon="5.92385">
        <ele>329</ele>
        <time>2017-03-30T15:04:25Z</time>
      </trkpt>
      <trkpt lat="43.40651" lon="5.92398">
        <ele>329</ele>
        <time>2017-03-30T15:04:28Z</time>
      </trkpt>
      <trkpt lat="43.40655" lon="5.92408">
        <ele>329</ele>
        <time>2017-03-30T15:04:30Z</time>
      </trkpt>
      <trkpt lat="43.40661" lon="5.92422">
        <ele>329</ele>
        <time>2017-03-30T15:04:33Z</time>
      </trkpt>
      <trkpt lat="43.40662" lon="5.92441">
        <ele>329</ele>
        <time>2017-03-30T15:04:36Z</time>
      </trkpt>
      <trkpt lat="43.40662" lon="5.92459">
        <ele>329</ele>
        <time>2017-03-30T15:04:38Z</time>
      </trkpt>
      <trkpt lat="43.40663" lon="5.92474">
        <ele>328</ele>
        <time>2017-03-30T15:04:40Z</time>
      </trkpt>
      <trkpt lat="43.40664" lon="5.92489">
        <ele>328</ele>
        <time>2017-03-30T15:04:42Z</time>
      </trkpt>
      <trkpt lat="43.40664" lon="5.92502">
        <ele>328</ele>
        <time>2017-03-30T15:04:47Z</time>
      </trkpt>
      <trkpt lat="43.40663" lon="5.92517">
        <ele>328</ele>
        <time>2017-03-30T15:04:54Z</time>
      </trkpt>
      <trkpt lat="43.40663" lon="5.92534">
        <ele>329</ele>
        <time>2017-03-30T15:04:58Z</time>
      </trkpt>
      <trkpt lat="43.40664" lon="5.92548">
        <ele>330</ele>
        <time>2017-03-30T15:05:00Z</time>
      </trkpt>
      <trkpt lat="43.40665" lon="5.92563">
        <ele>330</ele>
        <time>2017-03-30T15:05:03Z</time>
      </trkpt>
      <trkpt lat="43.40665" lon="5.92575">
        <ele>330</ele>
        <time>2017-03-30T15:05:06Z</time>
      </trkpt>
      <trkpt lat="43.40665" lon="5.92592">
        <ele>330</ele>
        <time>2017-03-30T15:05:10Z</time>
      </trkpt>
      <trkpt lat="43.40665" lon="5.9261">
        <ele>330</ele>
        <time>2017-03-30T15:05:13Z</time>
      </trkpt>
      <trkpt lat="43.40664" lon="5.92625">
        <ele>330</ele>
        <time>2017-03-30T15:05:16Z</time>
      </trkpt>
      <trkpt lat="43.40664" lon="5.92638">
        <ele>330</ele>
        <time>2017-03-30T15:05:19Z</time>
      </trkpt>
      <trkpt lat="43.40664" lon="5.92653">
        <ele>330</ele>
        <time>2017-03-30T15:05:21Z</time>
      </trkpt>
      <trkpt lat="43.40664" lon="5.92666">
        <ele>330</ele>
        <time>2017-03-30T15:05:23Z</time>
      </trkpt>
      <trkpt lat="43.40669" lon="5.92676">
        <ele>330</ele>
        <time>2017-03-30T15:05:28Z</time>
      </trkpt>
    </trkseg>
  </trk>
</gpx>